
Distance (Route):
Temperature : -69.8°C
Humidity : 10.1%
Pressure : 80.1hPa| Receiver | Frames | First received | Last received |
|---|---|---|---|
| PU1XMG-16 | 383 | 2026-09-06 00:02:49 | 2026-09-06 01:01:28 |
| Receiver | Date | Latitude | Longitude | Direction | Speed | Altitude | Climb | Temperature | Humidity | Pressure | Voltage | Killtimer | Uptime | BKT | XDATA |
|---|---|---|---|---|---|---|---|---|---|---|---|---|---|---|---|
| PU1XMG-16 | 2026-09-06 01:01:28 | -22.86736 | -42.34868 | 127° | 46km/h | 17914m | 5.0m/s | -69.8°C | 10.1% | 80.1hPa | 0V | 00:00:00 | 00:00:00 | 00:00:00 | |
| PU1XMG-16 | 2026-09-06 00:53:11 | -22.86215 | -42.45242 | 108° | 82km/h | 15762m | 4.3m/s | -71.4°C | 12.9% | 115.7hPa | 0V | 00:00:00 | 00:00:00 | 00:00:00 | |
| PU1XMG-16 | 2026-09-06 00:52:50 | -22.86138 | -42.45705 | 97° | 84km/h | 15664m | 5.3m/s | -70.7°C | 12.2% | 117.6hPa | 0V | 00:00:00 | 00:00:00 | 00:00:00 | |
| PU1XMG-16 | 2026-09-06 00:41:34 | -22.87962 | -42.67987 | 82° | 157km/h | 12664m | 3.9m/s | -54.3°C | 15.6% | 191.1hPa | 0V | 00:00:00 | 00:00:00 | 00:00:00 | |
| PU1XMG-16 | 2026-09-06 00:41:21 | -22.88016 | -42.68552 | 84° | 157km/h | 12615m | 3.0m/s | -54.1°C | 19.8% | 192.6hPa | 0V | 00:00:00 | 00:00:00 | 00:00:00 | |
| PU1XMG-16 | 2026-09-06 00:40:19 | -22.88043 | -42.71220 | 96° | 153km/h | 12352m | 5.2m/s | -53.5°C | 45.8% | 200.6hPa | 0V | 00:00:00 | 00:00:00 | 00:00:00 | |
| PU1XMG-16 | 2026-09-06 00:40:01 | -22.87964 | -42.71969 | 99° | 155km/h | 12282m | 4.8m/s | -53.3°C | 57.8% | 202.8hPa | 0V | 00:00:00 | 00:00:00 | 00:00:00 | |
| PU1XMG-16 | 2026-09-06 00:39:54 | -22.87925 | -42.72211 | 103° | 150km/h | 12257m | 3.7m/s | -53.4°C | 64.7% | 203.6hPa | 0V | 00:00:00 | 00:00:00 | 00:00:00 | |
| PU1XMG-16 | 2026-09-06 00:39:50 | -22.87890 | -42.72413 | 101° | 150km/h | 12236m | 5.6m/s | -53.4°C | 68.7% | 204.3hPa | 0V | 00:00:00 | 00:00:00 | 00:00:00 | |
| PU1XMG-16 | 2026-09-06 00:39:44 | -22.87853 | -42.72650 | 100° | 144km/h | 12212m | 4.1m/s | -53.3°C | 72.8% | 205.1hPa | 0V | 00:00:00 | 00:00:00 | 00:00:00 | |
| PU1XMG-16 | 2026-09-06 00:39:38 | -22.87823 | -42.72888 | 100° | 150km/h | 12187m | 5.0m/s | -53.3°C | 75.3% | 205.8hPa | 0V | 00:00:00 | 00:00:00 | 00:00:00 | |
| PU1XMG-16 | 2026-09-06 00:39:30 | -22.87784 | -42.73161 | 98° | 139km/h | 12159m | 4.6m/s | -53.0°C | 77.0% | 206.7hPa | 0V | 00:00:00 | 00:00:00 | 00:00:00 | |
| PU1XMG-16 | 2026-09-06 00:39:24 | -22.87748 | -42.73434 | 101° | 142km/h | 12131m | 4.2m/s | -52.8°C | 77.1% | 207.6hPa | 0V | 00:00:00 | 00:00:00 | 00:00:00 | |
| PU1XMG-16 | 2026-09-06 00:39:18 | -22.87706 | -42.73660 | 100° | 142km/h | 12107m | 4.2m/s | -52.5°C | 77.2% | 208.4hPa | 0V | 00:00:00 | 00:00:00 | 00:00:00 | |
| PU1XMG-16 | 2026-09-06 00:39:12 | -22.87689 | -42.73894 | 98° | 144km/h | 12080m | 2.1m/s | -52.3°C | 80.7% | 209.3hPa | 0V | 00:00:00 | 00:00:00 | 00:00:00 | |
| PU1XMG-16 | 2026-09-06 00:39:06 | -22.87645 | -42.74127 | 103° | 146km/h | 12056m | 4.4m/s | -52.1°C | 77.8% | 210.1hPa | 0V | 00:00:00 | 00:00:00 | 00:00:00 | |
| PU1XMG-16 | 2026-09-06 00:38:57 | -22.87606 | -42.74478 | 100° | 141km/h | 12017m | 3.7m/s | -51.7°C | 76.4% | 211.3hPa | 0V | 00:00:00 | 00:00:00 | 00:00:00 | |
| PU1XMG-16 | 2026-09-06 00:38:48 | -22.87560 | -42.74793 | 99° | 142km/h | 11985m | 3.8m/s | -51.4°C | 79.2% | 212.4hPa | 0V | 00:00:00 | 00:00:00 | 00:00:00 | |
| PU1XMG-16 | 2026-09-06 00:38:44 | -22.87534 | -42.74981 | 101° | 139km/h | 11965m | 3.9m/s | -51.2°C | 79.8% | 213.1hPa | 0V | 00:00:00 | 00:00:00 | 00:00:00 | |
| PU1XMG-16 | 2026-09-06 00:38:36 | -22.87505 | -42.75287 | 96° | 141km/h | 11932m | 3.1m/s | -51.0°C | 80.1% | 214.1hPa | 0V | 00:00:00 | 00:00:00 | 00:00:00 | |
| PU1XMG-16 | 2026-09-06 00:38:31 | -22.87478 | -42.75483 | 101° | 142km/h | 11907m | 2.5m/s | -50.8°C | 79.4% | 214.9hPa | 0V | 00:00:00 | 00:00:00 | 00:00:00 | |
| PU1XMG-16 | 2026-09-06 00:38:03 | -22.87330 | -42.76574 | 100° | 141km/h | 11789m | 3.9m/s | -50.0°C | 81.1% | 218.8hPa | 0V | 00:00:00 | 00:00:00 | 00:00:00 | |
| PU1XMG-16 | 2026-09-06 00:37:54 | -22.87287 | -42.76924 | 97° | 142km/h | 11750m | 5.2m/s | -49.6°C | 78.2% | 220.1hPa | 0V | 00:00:00 | 00:00:00 | 00:00:00 | |
| PU1XMG-16 | 2026-09-06 00:37:49 | -22.87265 | -42.77114 | 99° | 139km/h | 11727m | 4.0m/s | -49.5°C | 76.6% | 220.9hPa | 0V | 00:00:00 | 00:00:00 | 00:00:00 | |
| PU1XMG-16 | 2026-09-06 00:36:57 | -22.87037 | -42.79074 | 96° | 141km/h | 11499m | 5.1m/s | -47.6°C | 80.4% | 228.7hPa | 0V | 00:00:00 | 00:00:00 | 00:00:00 | |
| PU1XMG-16 | 2026-09-06 00:36:51 | -22.87004 | -42.79342 | 98° | 135km/h | 11465m | 3.7m/s | -47.3°C | 78.7% | 229.9hPa | 0V | 00:00:00 | 00:00:00 | 00:00:00 | |
| PU1XMG-16 | 2026-09-06 00:36:45 | -22.86979 | -42.79571 | 100° | 144km/h | 11433m | 4.6m/s | -47.0°C | 77.2% | 231.0hPa | 0V | 00:00:00 | 00:00:00 | 00:00:00 | |
| PU1XMG-16 | 2026-09-06 00:36:39 | -22.86944 | -42.79807 | 99° | 141km/h | 11406m | 5.3m/s | -46.8°C | 78.0% | 231.9hPa | 0V | 00:00:00 | 00:00:00 | 00:00:00 | |
| PU1XMG-16 | 2026-09-06 00:36:32 | -22.86915 | -42.80027 | 98° | 139km/h | 11378m | 4.2m/s | -46.5°C | 77.1% | 232.9hPa | 0V | 00:00:00 | 00:00:00 | 00:00:00 | |
| PU1XMG-16 | 2026-09-06 00:36:28 | -22.86899 | -42.80215 | 97° | 131km/h | 11353m | 5.1m/s | -46.3°C | 74.5% | 233.7hPa | 0V | 00:00:00 | 00:00:00 | 00:00:00 | |
| PU1XMG-16 | 2026-09-06 00:36:22 | -22.86876 | -42.80437 | 98° | 148km/h | 11324m | 4.6m/s | -46.0°C | 71.6% | 234.7hPa | 0V | 00:00:00 | 00:00:00 | 00:00:00 | |
| PU1XMG-16 | 2026-09-06 00:36:16 | -22.86850 | -42.80632 | 99° | 137km/h | 11302m | 4.8m/s | -45.8°C | 72.2% | 235.5hPa | 0V | 00:00:00 | 00:00:00 | 00:00:00 | |
| PU1XMG-16 | 2026-09-06 00:36:12 | -22.86828 | -42.80820 | 96° | 142km/h | 11280m | 4.7m/s | -45.6°C | 70.9% | 236.3hPa | 0V | 00:00:00 | 00:00:00 | 00:00:00 | |
| PU1XMG-16 | 2026-09-06 00:36:07 | -22.86815 | -42.81008 | 96° | 137km/h | 11256m | 4.8m/s | -45.4°C | 71.3% | 237.2hPa | 0V | 00:00:00 | 00:00:00 | 00:00:00 | |
| PU1XMG-16 | 2026-09-06 00:36:01 | -22.86790 | -42.81244 | 100° | 148km/h | 11228m | 5.3m/s | -45.1°C | 68.5% | 238.2hPa | 0V | 00:00:00 | 00:00:00 | 00:00:00 | |
| PU1XMG-16 | 2026-09-06 00:35:55 | -22.86750 | -42.81437 | 103° | 142km/h | 11206m | 5.7m/s | -44.9°C | 69.3% | 239.0hPa | 0V | 00:00:00 | 00:00:00 | 00:00:00 | |
| PU1XMG-16 | 2026-09-06 00:35:50 | -22.86726 | -42.81664 | 98° | 141km/h | 11175m | 6.3m/s | -44.6°C | 69.4% | 240.1hPa | 0V | 00:00:00 | 00:00:00 | 00:00:00 | |
| PU1XMG-16 | 2026-09-06 00:35:41 | -22.86677 | -42.82004 | 98° | 137km/h | 11123m | 4.6m/s | -44.1°C | 76.3% | 241.9hPa | 0V | 00:00:00 | 00:00:00 | 00:00:00 | |
| PU1XMG-16 | 2026-09-06 00:35:32 | -22.86622 | -42.82326 | 100° | 142km/h | 11071m | 7.5m/s | -43.6°C | 71.9% | 243.8hPa | 0V | 00:00:00 | 00:00:00 | 00:00:00 | |
| PU1XMG-16 | 2026-09-06 00:35:16 | -22.86526 | -42.82924 | 100° | 142km/h | 10997m | 4.6m/s | -42.9°C | 74.1% | 246.6hPa | 0V | 00:00:00 | 00:00:00 | 00:00:00 | |
| PU1XMG-16 | 2026-09-06 00:35:10 | -22.86488 | -42.83143 | 102° | 128km/h | 10968m | 6.2m/s | -42.7°C | 70.9% | 247.5hPa | 0V | 00:00:00 | 00:00:00 | 00:00:00 | |
| PU1XMG-16 | 2026-09-06 00:35:05 | -22.86465 | -42.83325 | 97° | 141km/h | 10946m | 4.3m/s | -42.5°C | 72.9% | 248.4hPa | 0V | 00:00:00 | 00:00:00 | 00:00:00 | |
| PU1XMG-16 | 2026-09-06 00:34:59 | -22.86433 | -42.83550 | 101° | 141km/h | 10920m | 5.9m/s | -42.3°C | 74.2% | 249.3hPa | 0V | 00:00:00 | 00:00:00 | 00:00:00 | |
| PU1XMG-16 | 2026-09-06 00:34:54 | -22.86410 | -42.83738 | 98° | 142km/h | 10891m | 4.8m/s | -42.0°C | 73.7% | 250.4hPa | 0V | 00:00:00 | 00:00:00 | 00:00:00 | |
| PU1XMG-16 | 2026-09-06 00:34:47 | -22.86363 | -42.83968 | 107° | 150km/h | 10853m | 7.4m/s | -41.7°C | 71.4% | 251.8hPa | 0V | 00:00:00 | 00:00:00 | 00:00:00 | |
| PU1XMG-16 | 2026-09-06 00:34:42 | -22.86315 | -42.84211 | 100° | 146km/h | 10822m | 5.3m/s | -41.4°C | 71.0% | 253.0hPa | 0V | 00:00:00 | 00:00:00 | 00:00:00 | |
| PU1XMG-16 | 2026-09-06 00:34:37 | -22.86274 | -42.84392 | 107° | 133km/h | 10793m | 6.4m/s | -41.1°C | 68.5% | 254.0hPa | 0V | 00:00:00 | 00:00:00 | 00:00:00 | |
| PU1XMG-16 | 2026-09-06 00:34:32 | -22.86229 | -42.84566 | 106° | 130km/h | 10766m | 5.4m/s | -40.9°C | 67.6% | 255.0hPa | 0V | 00:00:00 | 00:00:00 | 00:00:00 | |
| PU1XMG-16 | 2026-09-06 00:34:25 | -22.86183 | -42.84777 | 101° | 142km/h | 10738m | 5.6m/s | -40.7°C | 68.8% | 256.1hPa | 0V | 00:00:00 | 00:00:00 | 00:00:00 | |
| PU1XMG-16 | 2026-09-06 00:34:20 | -22.86152 | -42.84974 | 101° | 150km/h | 10709m | 5.2m/s | -40.4°C | 67.2% | 257.2hPa | 0V | 00:00:00 | 00:00:00 | 00:00:00 | |
| PU1XMG-16 | 2026-09-06 00:34:07 | -22.86038 | -42.85506 | 110° | 139km/h | 10627m | 4.8m/s | -39.7°C | 63.8% | 260.2hPa | 0V | 00:00:00 | 00:00:00 | 00:00:00 | |
| PU1XMG-16 | 2026-09-06 00:34:01 | -22.85990 | -42.85689 | 102° | 139km/h | 10606m | 4.7m/s | -39.5°C | 65.4% | 261.1hPa | 0V | 00:00:00 | 00:00:00 | 00:00:00 | |
| PU1XMG-16 | 2026-09-06 00:33:56 | -22.85955 | -42.85920 | 100° | 142km/h | 10581m | 4.0m/s | -39.3°C | 64.4% | 262.1hPa | 0V | 00:00:00 | 00:00:00 | 00:00:00 | |
| PU1XMG-16 | 2026-09-06 00:33:50 | -22.85906 | -42.86130 | 108° | 135km/h | 10557m | 3.5m/s | -39.1°C | 64.2% | 263.0hPa | 0V | 00:00:00 | 00:00:00 | 00:00:00 | |
| PU1XMG-16 | 2026-09-06 00:33:43 | -22.85860 | -42.86354 | 101° | 131km/h | 10531m | 4.9m/s | -38.9°C | 63.5% | 264.0hPa | 0V | 00:00:00 | 00:00:00 | 00:00:00 | |
| PU1XMG-16 | 2026-09-06 00:33:37 | -22.85821 | -42.86562 | 105° | 135km/h | 10506m | 3.0m/s | -38.7°C | 63.0% | 264.9hPa | 0V | 00:00:00 | 00:00:00 | 00:00:00 | |
| PU1XMG-16 | 2026-09-06 00:33:32 | -22.85777 | -42.86789 | 103° | 135km/h | 10481m | 3.5m/s | -38.5°C | 62.5% | 265.8hPa | 0V | 00:00:00 | 00:00:00 | 00:00:00 | |
| PU1XMG-16 | 2026-09-06 00:33:26 | -22.85740 | -42.86968 | 104° | 133km/h | 10460m | 5.1m/s | -38.3°C | 60.9% | 266.7hPa | 0V | 00:00:00 | 00:00:00 | 00:00:00 | |
| PU1XMG-16 | 2026-09-06 00:33:22 | -22.85699 | -42.87151 | 102° | 133km/h | 10440m | 4.4m/s | -38.2°C | 61.1% | 267.5hPa | 0V | 00:00:00 | 00:00:00 | 00:00:00 | |
| PU1XMG-16 | 2026-09-06 00:33:17 | -22.85671 | -42.87326 | 102° | 133km/h | 10422m | 3.8m/s | -38.0°C | 64.2% | 268.2hPa | 0V | 00:00:00 | 00:00:00 | 00:00:00 | |
| PU1XMG-16 | 2026-09-06 00:33:12 | -22.85637 | -42.87507 | 99° | 131km/h | 10400m | 6.8m/s | -37.8°C | 61.9% | 268.9hPa | 0V | 00:00:00 | 00:00:00 | 00:00:00 | |
| PU1XMG-16 | 2026-09-06 00:33:06 | -22.85607 | -42.87713 | 102° | 135km/h | 10368m | 3.8m/s | -37.5°C | 62.3% | 270.4hPa | 0V | 00:00:00 | 00:00:00 | 00:00:00 | |
| PU1XMG-16 | 2026-09-06 00:33:01 | -22.85572 | -42.87895 | 102° | 142km/h | 10342m | 5.7m/s | -37.3°C | 60.3% | 271.3hPa | 0V | 00:00:00 | 00:00:00 | 00:00:00 | |
| PU1XMG-16 | 2026-09-06 00:32:55 | -22.85522 | -42.88122 | 102° | 133km/h | 10308m | 4.1m/s | -37.0°C | 62.0% | 272.6hPa | 0V | 00:00:00 | 00:00:00 | 00:00:00 | |
| PU1XMG-16 | 2026-09-06 00:32:50 | -22.85482 | -42.88304 | 106° | 150km/h | 10283m | 6.0m/s | -36.7°C | 58.5% | 273.6hPa | 0V | 00:00:00 | 00:00:00 | 00:00:00 | |
| PU1XMG-16 | 2026-09-06 00:32:43 | -22.85423 | -42.88528 | 105° | 133km/h | 10253m | 5.4m/s | -36.5°C | 60.3% | 274.8hPa | 0V | 00:00:00 | 00:00:00 | 00:00:00 | |
| PU1XMG-16 | 2026-09-06 00:32:38 | -22.85398 | -42.88712 | 97° | 131km/h | 10231m | 5.4m/s | -36.2°C | 61.4% | 275.7hPa | 0V | 00:00:00 | 00:00:00 | 00:00:00 | |
| PU1XMG-16 | 2026-09-06 00:32:34 | -22.85358 | -42.88888 | 108° | 141km/h | 10202m | 5.1m/s | -36.2°C | 64.9% | 276.8hPa | 0V | 00:00:00 | 00:00:00 | 00:00:00 | |
| PU1XMG-16 | 2026-09-06 00:32:21 | -22.85295 | -42.89385 | 101° | 137km/h | 10137m | 7.1m/s | -35.6°C | 62.8% | 279.5hPa | 0V | 00:00:00 | 00:00:00 | 00:00:00 | |
| PU1XMG-16 | 2026-09-06 00:32:14 | -22.85251 | -42.89611 | 99° | 142km/h | 10107m | 4.9m/s | -35.4°C | 65.4% | 280.7hPa | 0V | 00:00:00 | 00:00:00 | 00:00:00 | |
| PU1XMG-16 | 2026-09-06 00:32:08 | -22.85219 | -42.89851 | 98° | 148km/h | 10083m | 3.7m/s | -35.2°C | 66.3% | 281.7hPa | 0V | 00:00:00 | 00:00:00 | 00:00:00 | |
| PU1XMG-16 | 2026-09-06 00:32:04 | -22.85191 | -42.90047 | 102° | 144km/h | 10059m | 8.3m/s | -35.0°C | 64.4% | 282.6hPa | 0V | 00:00:00 | 00:00:00 | 00:00:00 | |
| PU1XMG-16 | 2026-09-06 00:31:58 | -22.85143 | -42.90276 | 100° | 135km/h | 10029m | 4.7m/s | -34.8°C | 66.1% | 283.8hPa | 0V | 00:00:00 | 00:00:00 | 00:00:00 | |
| PU1XMG-16 | 2026-09-06 00:31:53 | -22.85121 | -42.90449 | 100° | 128km/h | 10010m | 3.6m/s | -34.6°C | 66.7% | 284.6hPa | 0V | 00:00:00 | 00:00:00 | 00:00:00 | |
| PU1XMG-16 | 2026-09-06 00:31:47 | -22.85093 | -42.90631 | 99° | 135km/h | 9984m | 6.2m/s | -34.4°C | 65.3% | 285.6hPa | 0V | 00:00:00 | 00:00:00 | 00:00:00 | |
| PU1XMG-16 | 2026-09-06 00:31:42 | -22.85054 | -42.90842 | 103° | 128km/h | 9957m | 2.4m/s | -34.1°C | 65.7% | 286.7hPa | 0V | 00:00:00 | 00:00:00 | 00:00:00 | |
| PU1XMG-16 | 2026-09-06 00:31:37 | -22.85019 | -42.91018 | 102° | 135km/h | 9933m | 4.7m/s | -33.9°C | 64.1% | 287.7hPa | 0V | 00:00:00 | 00:00:00 | 00:00:00 | |
| PU1XMG-16 | 2026-09-06 00:31:32 | -22.84998 | -42.91204 | 98° | 135km/h | 9913m | 3.8m/s | -33.8°C | 64.9% | 288.5hPa | 0V | 00:00:00 | 00:00:00 | 00:00:00 | |
| PU1XMG-16 | 2026-09-06 00:31:25 | -22.84966 | -42.91421 | 101° | 135km/h | 9890m | 5.3m/s | -33.7°C | 66.3% | 289.5hPa | 0V | 00:00:00 | 00:00:00 | 00:00:00 | |
| PU1XMG-16 | 2026-09-06 00:31:21 | -22.84936 | -42.91610 | 101° | 137km/h | 9869m | 4.1m/s | -33.6°C | 66.7% | 290.4hPa | 0V | 00:00:00 | 00:00:00 | 00:00:00 | |
| PU1XMG-16 | 2026-09-06 00:31:15 | -22.84904 | -42.91827 | 101° | 120km/h | 9843m | 4.3m/s | -33.5°C | 67.0% | 291.4hPa | 0V | 00:00:00 | 00:00:00 | 00:00:00 | |
| PU1XMG-16 | 2026-09-06 00:31:10 | -22.84871 | -42.91990 | 106° | 128km/h | 9824m | 3.0m/s | -33.4°C | 68.0% | 292.2hPa | 0V | 00:00:00 | 00:00:00 | 00:00:00 | |
| PU1XMG-16 | 2026-09-06 00:30:59 | -22.84810 | -42.92348 | 99° | 122km/h | 9781m | 4.2m/s | -33.1°C | 70.3% | 294.0hPa | 0V | 00:00:00 | 00:00:00 | 00:00:00 | |
| PU1XMG-16 | 2026-09-06 00:30:55 | -22.84782 | -42.92526 | 101° | 139km/h | 9749m | 5.5m/s | -32.8°C | 69.4% | 295.4hPa | 0V | 00:00:00 | 00:00:00 | 00:00:00 | |
| PU1XMG-16 | 2026-09-06 00:30:48 | -22.84757 | -42.92741 | 97° | 131km/h | 9719m | 7.0m/s | -32.6°C | 70.0% | 296.6hPa | 0V | 00:00:00 | 00:00:00 | 00:00:00 | |
| PU1XMG-16 | 2026-09-06 00:30:43 | -22.84745 | -42.92912 | 95° | 124km/h | 9690m | 4.9m/s | -32.4°C | 72.5% | 297.8hPa | 0V | 00:00:00 | 00:00:00 | 00:00:00 | |
| PU1XMG-16 | 2026-09-06 00:30:38 | -22.84721 | -42.93114 | 99° | 128km/h | 9664m | 4.6m/s | -32.3°C | 74.2% | 299.0hPa | 0V | 00:00:00 | 00:00:00 | 00:00:00 | |
| PU1XMG-16 | 2026-09-06 00:30:33 | -22.84699 | -42.93281 | 102° | 122km/h | 9634m | 6.6m/s | -32.0°C | 72.3% | 300.2hPa | 0V | 00:00:00 | 00:00:00 | 00:00:00 | |
| PU1XMG-16 | 2026-09-06 00:30:27 | -22.84677 | -42.93479 | 98° | 117km/h | 9600m | 5.9m/s | -31.7°C | 73.7% | 301.6hPa | 0V | 00:00:00 | 00:00:00 | 00:00:00 | |
| PU1XMG-16 | 2026-09-06 00:30:20 | -22.84658 | -42.93678 | 98° | 120km/h | 9562m | 7.0m/s | -31.7°C | 74.9% | 303.2hPa | 0V | 00:00:00 | 00:00:00 | 00:00:00 | |
| PU1XMG-16 | 2026-09-06 00:30:17 | -22.84639 | -42.93851 | 92° | 119km/h | 9534m | 4.5m/s | -31.5°C | 75.6% | 304.5hPa | 0V | 00:00:00 | 00:00:00 | 00:00:00 | |
| PU1XMG-16 | 2026-09-06 00:30:09 | -22.84633 | -42.94028 | 93° | 113km/h | 9500m | 3.8m/s | -31.2°C | 75.6% | 305.9hPa | 0V | 00:00:00 | 00:00:00 | 00:00:00 | |
| PU1XMG-16 | 2026-09-06 00:30:03 | -22.84622 | -42.94211 | 103° | 104km/h | 9469m | 5.4m/s | -30.9°C | 74.0% | 307.3hPa | 0V | 00:00:00 | 00:00:00 | 00:00:00 | |
| PU1XMG-16 | 2026-09-06 00:29:59 | -22.84596 | -42.94356 | 100° | 110km/h | 9440m | 7.4m/s | -30.7°C | 73.2% | 308.5hPa | 0V | 00:00:00 | 00:00:00 | 00:00:00 | |
| PU1XMG-16 | 2026-09-06 00:29:53 | -22.84577 | -42.94508 | 97° | 102km/h | 9412m | 4.3m/s | -30.5°C | 75.0% | 309.8hPa | 0V | 00:00:00 | 00:00:00 | 00:00:00 | |
| PU1XMG-16 | 2026-09-06 00:29:47 | -22.84559 | -42.94683 | 99° | 122km/h | 9388m | 4.4m/s | -30.3°C | 74.4% | 310.8hPa | 0V | 00:00:00 | 00:00:00 | 00:00:00 | |
| PU1XMG-16 | 2026-09-06 00:29:43 | -22.84540 | -42.94834 | 95° | 97km/h | 9367m | 4.8m/s | -30.2°C | 74.9% | 311.7hPa | 0V | 00:00:00 | 00:00:00 | 00:00:00 | |
| PU1XMG-16 | 2026-09-06 00:29:36 | -22.84523 | -42.94992 | 102° | 102km/h | 9342m | 4.9m/s | -30.0°C | 76.5% | 312.8hPa | 0V | 00:00:00 | 00:00:00 | 00:00:00 | |
| PU1XMG-16 | 2026-09-06 00:29:30 | -22.84489 | -42.95162 | 99° | 113km/h | 9314m | 4.9m/s | -29.8°C | 75.5% | 314.0hPa | 0V | 00:00:00 | 00:00:00 | 00:00:00 | |
| PU1XMG-16 | 2026-09-06 00:29:25 | -22.84466 | -42.95305 | 105° | 93km/h | 9291m | 4.5m/s | -29.7°C | 76.9% | 315.1hPa | 0V | 00:00:00 | 00:00:00 | 00:00:00 | |
| PU1XMG-16 | 2026-09-06 00:29:19 | -22.84438 | -42.95463 | 98° | 104km/h | 9263m | 3.2m/s | -29.5°C | 77.2% | 316.2hPa | 0V | 00:00:00 | 00:00:00 | 00:00:00 | |
| PU1XMG-16 | 2026-09-06 00:29:14 | -22.84415 | -42.95604 | 103° | 104km/h | 9243m | 3.6m/s | -29.3°C | 77.6% | 317.2hPa | 0V | 00:00:00 | 00:00:00 | 00:00:00 | |
| PU1XMG-16 | 2026-09-06 00:29:09 | -22.84383 | -42.95776 | 104° | 110km/h | 9218m | 4.4m/s | -29.3°C | 77.5% | 318.3hPa | 0V | 00:00:00 | 00:00:00 | 00:00:00 | |
| PU1XMG-16 | 2026-09-06 00:29:02 | -22.84343 | -42.95934 | 106° | 95km/h | 9192m | 7.8m/s | -29.3°C | 78.0% | 319.4hPa | 0V | 00:00:00 | 00:00:00 | 00:00:00 | |
| PU1XMG-16 | 2026-09-06 00:28:53 | -22.84305 | -42.96197 | 99° | 88km/h | 9136m | 3.3m/s | -28.8°C | 75.1% | 322.0hPa | 0V | 00:00:00 | 00:00:00 | 00:00:00 | |
| PU1XMG-16 | 2026-09-06 00:28:46 | -22.84263 | -42.96351 | 111° | 97km/h | 9105m | 7.9m/s | -28.6°C | 74.1% | 323.3hPa | 0V | 00:00:00 | 00:00:00 | 00:00:00 | |
| PU1XMG-16 | 2026-09-06 00:28:40 | -22.84222 | -42.96497 | 105° | 97km/h | 9067m | 5.1m/s | -28.3°C | 73.4% | 325.0hPa | 0V | 00:00:00 | 00:00:00 | 00:00:00 | |
| PU1XMG-16 | 2026-09-06 00:28:36 | -22.84184 | -42.96612 | 115° | 93km/h | 9037m | 6.2m/s | -28.1°C | 75.1% | 326.4hPa | 0V | 00:00:00 | 00:00:00 | 00:00:00 | |
| PU1XMG-16 | 2026-09-06 00:28:30 | -22.84141 | -42.96732 | 114° | 95km/h | 9006m | 7.4m/s | -27.8°C | 73.6% | 327.8hPa | 0V | 00:00:00 | 00:00:00 | 00:00:00 | |
| PU1XMG-16 | 2026-09-06 00:28:25 | -22.84090 | -42.96878 | 108° | 91km/h | 8973m | 4.7m/s | -27.6°C | 72.6% | 329.3hPa | 0V | 00:00:00 | 00:00:00 | 00:00:00 | |
| PU1XMG-16 | 2026-09-06 00:28:19 | -22.84035 | -42.97024 | 121° | 102km/h | 8947m | 4.2m/s | -27.3°C | 70.8% | 330.6hPa | 0V | 00:00:00 | 00:00:00 | 00:00:00 | |
| PU1XMG-16 | 2026-09-06 00:28:12 | -22.83968 | -42.97165 | 111° | 91km/h | 8923m | 5.3m/s | -27.2°C | 74.9% | 331.6hPa | 0V | 00:00:00 | 00:00:00 | 00:00:00 | |
| PU1XMG-16 | 2026-09-06 00:28:07 | -22.83919 | -42.97310 | 111° | 86km/h | 8885m | 7.8m/s | -26.8°C | 74.4% | 333.3hPa | 0V | 00:00:00 | 00:00:00 | 00:00:00 | |
| PU1XMG-16 | 2026-09-06 00:28:00 | -22.83862 | -42.97434 | 120° | 82km/h | 8847m | 4.1m/s | -26.5°C | 74.1% | 335.2hPa | 0V | 00:00:00 | 00:00:00 | 00:00:00 | |
| PU1XMG-16 | 2026-09-06 00:27:55 | -22.83809 | -42.97554 | 113° | 100km/h | 8824m | 6.3m/s | -26.3°C | 73.0% | 336.1hPa | 0V | 00:00:00 | 00:00:00 | 00:00:00 | |
| PU1XMG-16 | 2026-09-06 00:27:51 | -22.83765 | -42.97664 | 117° | 88km/h | 8794m | 5.2m/s | -26.0°C | 72.2% | 337.5hPa | 0V | 00:00:00 | 00:00:00 | 00:00:00 | |
| PU1XMG-16 | 2026-09-06 00:27:45 | -22.83710 | -42.97808 | 117° | 93km/h | 8762m | 5.7m/s | -25.7°C | 74.8% | 339.1hPa | 0V | 00:00:00 | 00:00:00 | 00:00:00 | |
| PU1XMG-16 | 2026-09-06 00:27:39 | -22.83646 | -42.97952 | 114° | 86km/h | 8725m | 4.9m/s | -25.5°C | 75.5% | 340.9hPa | 0V | 00:00:00 | 00:00:00 | 00:00:00 | |
| PU1XMG-16 | 2026-09-06 00:27:32 | -22.83597 | -42.98077 | 113° | 80km/h | 8690m | 6.3m/s | -25.2°C | 73.6% | 342.4hPa | 0V | 00:00:00 | 00:00:00 | 00:00:00 | |
| PU1XMG-16 | 2026-09-06 00:27:28 | -22.83546 | -42.98195 | 117° | 104km/h | 8663m | 5.9m/s | -24.9°C | 73.6% | 343.7hPa | 0V | 00:00:00 | 00:00:00 | 00:00:00 | |
| PU1XMG-16 | 2026-09-06 00:27:22 | -22.83504 | -42.98325 | 106° | 99km/h | 8640m | 5.6m/s | -24.7°C | 73.7% | 344.9hPa | 0V | 00:00:00 | 00:00:00 | 00:00:00 | |
| PU1XMG-16 | 2026-09-06 00:27:17 | -22.83442 | -42.98477 | 119° | 88km/h | 8602m | 5.2m/s | -24.4°C | 72.0% | 346.6hPa | 0V | 00:00:00 | 00:00:00 | 00:00:00 | |
| PU1XMG-16 | 2026-09-06 00:27:10 | -22.83401 | -42.98615 | 110° | 100km/h | 8568m | 7.5m/s | -24.1°C | 72.1% | 348.2hPa | 0V | 00:00:00 | 00:00:00 | 00:00:00 | |
| PU1XMG-16 | 2026-09-06 00:27:06 | -22.83348 | -42.98742 | 115° | 104km/h | 8538m | 7.2m/s | -23.9°C | 72.0% | 349.7hPa | 0V | 00:00:00 | 00:00:00 | 00:00:00 | |
| PU1XMG-16 | 2026-09-06 00:26:59 | -22.83283 | -42.98897 | 111° | 97km/h | 8509m | 5.2m/s | -23.6°C | 72.3% | 351.1hPa | 0V | 00:00:00 | 00:00:00 | 00:00:00 | |
| PU1XMG-16 | 2026-09-06 00:26:54 | -22.83255 | -42.99025 | 100° | 99km/h | 8481m | 3.4m/s | -23.4°C | 71.5% | 352.5hPa | 0V | 00:00:00 | 00:00:00 | 00:00:00 | |
| PU1XMG-16 | 2026-09-06 00:26:48 | -22.83220 | -42.99174 | 115° | 102km/h | 8450m | 5.2m/s | -23.1°C | 70.6% | 354.0hPa | 0V | 00:00:00 | 00:00:00 | 00:00:00 | |
| PU1XMG-16 | 2026-09-06 00:26:44 | -22.83179 | -42.99306 | 102° | 97km/h | 8422m | 5.1m/s | -22.8°C | 69.8% | 355.3hPa | 0V | 00:00:00 | 00:00:00 | 00:00:00 | |
| PU1XMG-16 | 2026-09-06 00:26:37 | -22.83138 | -42.99442 | 110° | 97km/h | 8387m | 5.5m/s | -22.5°C | 68.6% | 357.1hPa | 0V | 00:00:00 | 00:00:00 | 00:00:00 | |
| PU1XMG-16 | 2026-09-06 00:26:32 | -22.83086 | -42.99598 | 108° | 93km/h | 8351m | 6.5m/s | -22.2°C | 67.4% | 358.7hPa | 0V | 00:00:00 | 00:00:00 | 00:00:00 | |
| PU1XMG-16 | 2026-09-06 00:26:25 | -22.83052 | -42.99753 | 104° | 100km/h | 8323m | 4.2m/s | -22.0°C | 68.2% | 360.2hPa | 0V | 00:00:00 | 00:00:00 | 00:00:00 | |
| PU1XMG-16 | 2026-09-06 00:26:20 | -22.83011 | -42.99902 | 106° | 93km/h | 8297m | 5.4m/s | -21.7°C | 66.8% | 361.3hPa | 0V | 00:00:00 | 00:00:00 | 00:00:00 | |
| PU1XMG-16 | 2026-09-06 00:26:15 | -22.82981 | -43.00036 | 106° | 100km/h | 8278m | 3.2m/s | -21.7°C | 65.6% | 362.3hPa | 0V | 00:00:00 | 00:00:00 | 00:00:00 | |
| PU1XMG-16 | 2026-09-06 00:26:08 | -22.82933 | -43.00188 | 113° | 93km/h | 8250m | 5.1m/s | -21.6°C | 66.2% | 363.6hPa | 0V | 00:00:00 | 00:00:00 | 00:00:00 | |
| PU1XMG-16 | 2026-09-06 00:26:03 | -22.82887 | -43.00339 | 105° | 97km/h | 8226m | 3.7m/s | -21.5°C | 70.0% | 364.8hPa | 0V | 00:00:00 | 00:00:00 | 00:00:00 | |
| PU1XMG-16 | 2026-09-06 00:25:57 | -22.82850 | -43.00473 | 109° | 102km/h | 8206m | 5.2m/s | -21.3°C | 69.1% | 365.8hPa | 0V | 00:00:00 | 00:00:00 | 00:00:00 | |
| PU1XMG-16 | 2026-09-06 00:25:53 | -22.82809 | -43.00597 | 110° | 95km/h | 8187m | 4.4m/s | -21.2°C | 69.3% | 366.7hPa | 0V | 00:00:00 | 00:00:00 | 00:00:00 | |
| PU1XMG-16 | 2026-09-06 00:25:46 | -22.82774 | -43.00754 | 106° | 99km/h | 8165m | 3.6m/s | -21.0°C | 70.2% | 367.9hPa | 0V | 00:00:00 | 00:00:00 | 00:00:00 | |
| PU1XMG-16 | 2026-09-06 00:25:42 | -22.82738 | -43.00876 | 108° | 88km/h | 8146m | 3.3m/s | -20.9°C | 71.7% | 368.8hPa | 0V | 00:00:00 | 00:00:00 | 00:00:00 | |
| PU1XMG-16 | 2026-09-06 00:25:35 | -22.82701 | -43.01027 | 105° | 104km/h | 8117m | 6.2m/s | -20.7°C | 73.9% | 370.2hPa | 0V | 00:00:00 | 00:00:00 | 00:00:00 | |
| PU1XMG-16 | 2026-09-06 00:25:32 | -22.82669 | -43.01164 | 105° | 99km/h | 8094m | 4.7m/s | -20.6°C | 76.4% | 371.3hPa | 0V | 00:00:00 | 00:00:00 | 00:00:00 | |
| PU1XMG-16 | 2026-09-06 00:25:26 | -22.82633 | -43.01298 | 110° | 108km/h | 8070m | 5.8m/s | -20.4°C | 75.0% | 372.6hPa | 0V | 00:00:00 | 00:00:00 | 00:00:00 | |
| PU1XMG-16 | 2026-09-06 00:25:19 | -22.82590 | -43.01460 | 103° | 89km/h | 8039m | 6.4m/s | -20.2°C | 79.7% | 374.2hPa | 0V | 00:00:00 | 00:00:00 | 00:00:00 | |
| PU1XMG-16 | 2026-09-06 00:25:14 | -22.82563 | -43.01598 | 106° | 113km/h | 8011m | 4.9m/s | -20.1°C | 82.8% | 375.5hPa | 0V | 00:00:00 | 00:00:00 | 00:00:00 | |
| PU1XMG-16 | 2026-09-06 00:25:09 | -22.82519 | -43.01741 | 106° | 110km/h | 7984m | 7.2m/s | -20.3°C | 93.5% | 376.9hPa | 0V | 00:00:00 | 00:00:00 | 00:00:00 | |
| PU1XMG-16 | 2026-09-06 00:25:03 | -22.82489 | -43.01912 | 105° | 110km/h | 7953m | 4.8m/s | -20.2°C | 93.8% | 378.4hPa | 0V | 00:00:00 | 00:00:00 | 00:00:00 | |
| PU1XMG-16 | 2026-09-06 00:24:58 | -22.82460 | -43.02050 | 102° | 89km/h | 7926m | 5.2m/s | -20.3°C | 95.6% | 379.8hPa | 0V | 00:00:00 | 00:00:00 | 00:00:00 | |
| PU1XMG-16 | 2026-09-06 00:24:52 | -22.82426 | -43.02184 | 111° | 86km/h | 7895m | 4.6m/s | -20.0°C | 95.7% | 381.5hPa | 0V | 00:00:00 | 00:00:00 | 00:00:00 | |
| PU1XMG-16 | 2026-09-06 00:24:47 | -22.82393 | -43.02293 | 113° | 82km/h | 7868m | 5.9m/s | -20.0°C | 95.3% | 382.8hPa | 0V | 00:00:00 | 00:00:00 | 00:00:00 | |
| PU1XMG-16 | 2026-09-06 00:24:41 | -22.82343 | -43.02414 | 107° | 89km/h | 7843m | 4.8m/s | -19.8°C | 95.2% | 384.1hPa | 0V | 00:00:00 | 00:00:00 | 00:00:00 | |
| PU1XMG-16 | 2026-09-06 00:24:36 | -22.82328 | -43.02532 | 96° | 84km/h | 7814m | 5.4m/s | -19.7°C | 94.9% | 385.6hPa | 0V | 00:00:00 | 00:00:00 | 00:00:00 | |
| PU1XMG-16 | 2026-09-06 00:24:30 | -22.82305 | -43.02670 | 107° | 77km/h | 7780m | 5.5m/s | -19.4°C | 93.8% | 387.3hPa | 0V | 00:00:00 | 00:00:00 | 00:00:00 | |
| PU1XMG-16 | 2026-09-06 00:24:25 | -22.82282 | -43.02771 | 100° | 69km/h | 7754m | 5.2m/s | -19.2°C | 93.3% | 388.7hPa | 0V | 00:00:00 | 00:00:00 | 00:00:00 | |
| PU1XMG-16 | 2026-09-06 00:24:19 | -22.82255 | -43.02895 | 104° | 86km/h | 7726m | 5.2m/s | -19.1°C | 92.3% | 390.2hPa | 0V | 00:00:00 | 00:00:00 | 00:00:00 | |
| PU1XMG-16 | 2026-09-06 00:24:13 | -22.82232 | -43.03023 | 108° | 77km/h | 7698m | 3.8m/s | -18.9°C | 91.7% | 391.7hPa | 0V | 00:00:00 | 00:00:00 | 00:00:00 | |
| PU1XMG-16 | 2026-09-06 00:24:07 | -22.82205 | -43.03154 | 99° | 78km/h | 7669m | 3.9m/s | -18.7°C | 90.7% | 393.2hPa | 0V | 00:00:00 | 00:00:00 | 00:00:00 | |
| PU1XMG-16 | 2026-09-06 00:24:02 | -22.82191 | -43.03262 | 102° | 78km/h | 7647m | 4.1m/s | -18.5°C | 89.8% | 394.4hPa | 0V | 00:00:00 | 00:00:00 | 00:00:00 | |
| PU1XMG-16 | 2026-09-06 00:23:56 | -22.82169 | -43.03384 | 103° | 73km/h | 7618m | 3.9m/s | -18.3°C | 90.2% | 395.9hPa | 0V | 00:00:00 | 00:00:00 | 00:00:00 | |
| PU1XMG-16 | 2026-09-06 00:23:51 | -22.82156 | -43.03485 | 100° | 71km/h | 7598m | 5.0m/s | -18.1°C | 89.5% | 396.9hPa | 0V | 00:00:00 | 00:00:00 | 00:00:00 | |
| PU1XMG-16 | 2026-09-06 00:23:46 | -22.82130 | -43.03600 | 109° | 71km/h | 7575m | 4.7m/s | -18.0°C | 89.9% | 398.2hPa | 0V | 00:00:00 | 00:00:00 | 00:00:00 | |
| PU1XMG-16 | 2026-09-06 00:23:39 | -22.82105 | -43.03716 | 102° | 75km/h | 7546m | 5.6m/s | -17.7°C | 88.9% | 399.8hPa | 0V | 00:00:00 | 00:00:00 | 00:00:00 | |
| PU1XMG-16 | 2026-09-06 00:23:34 | -22.82092 | -43.03811 | 97° | 69km/h | 7525m | 4.1m/s | -17.6°C | 89.0% | 400.8hPa | 0V | 00:00:00 | 00:00:00 | 00:00:00 | |
| PU1XMG-16 | 2026-09-06 00:23:28 | -22.82069 | -43.03933 | 103° | 82km/h | 7502m | 4.1m/s | -17.4°C | 88.6% | 402.1hPa | 0V | 00:00:00 | 00:00:00 | 00:00:00 | |
| PU1XMG-16 | 2026-09-06 00:23:23 | -22.82050 | -43.04039 | 97° | 77km/h | 7482m | 5.2m/s | -17.2°C | 90.0% | 403.1hPa | 0V | 00:00:00 | 00:00:00 | 00:00:00 | |
| PU1XMG-16 | 2026-09-06 00:23:18 | -22.82045 | -43.04131 | 92° | 60km/h | 7458m | 4.8m/s | -17.1°C | 89.1% | 404.5hPa | 0V | 00:00:00 | 00:00:00 | 00:00:00 | |
| PU1XMG-16 | 2026-09-06 00:23:13 | -22.82025 | -43.04222 | 107° | 78km/h | 7432m | 7.3m/s | -16.9°C | 89.1% | 405.8hPa | 0V | 00:00:00 | 00:00:00 | 00:00:00 | |
| PU1XMG-16 | 2026-09-06 00:23:08 | -22.82012 | -43.04334 | 96° | 71km/h | 7401m | 6.0m/s | -17.3°C | 88.2% | 407.5hPa | 0V | 00:00:00 | 00:00:00 | 00:00:00 | |
| PU1XMG-16 | 2026-09-06 00:23:02 | -22.81995 | -43.04445 | 92° | 68km/h | 7371m | 5.6m/s | -17.5°C | 79.9% | 409.1hPa | 0V | 00:00:00 | 00:00:00 | 00:00:00 | |
| PU1XMG-16 | 2026-09-06 00:22:56 | -22.81998 | -43.04573 | 94° | 80km/h | 7335m | 6.7m/s | -17.3°C | 73.5% | 411.1hPa | 0V | 00:00:00 | 00:00:00 | 00:00:00 | |
| PU1XMG-16 | 2026-09-06 00:22:50 | -22.81997 | -43.04696 | 90° | 86km/h | 7303m | 4.9m/s | -17.1°C | 68.9% | 412.9hPa | 0V | 00:00:00 | 00:00:00 | 00:00:00 | |
| PU1XMG-16 | 2026-09-06 00:22:44 | -22.82010 | -43.04842 | 84° | 75km/h | 7277m | 3.9m/s | -16.9°C | 66.4% | 414.4hPa | 0V | 00:00:00 | 00:00:00 | 00:00:00 | |
| PU1XMG-16 | 2026-09-06 00:22:39 | -22.82011 | -43.04942 | 95° | 86km/h | 7252m | 3.2m/s | -16.7°C | 67.2% | 415.7hPa | 0V | 00:00:00 | 00:00:00 | 00:00:00 | |
| PU1XMG-16 | 2026-09-06 00:22:34 | -22.82020 | -43.05069 | 80° | 88km/h | 7225m | 4.5m/s | -16.4°C | 65.7% | 417.2hPa | 0V | 00:00:00 | 00:00:00 | 00:00:00 | |
| PU1XMG-16 | 2026-09-06 00:22:29 | -22.82027 | -43.05171 | 93° | 69km/h | 7204m | 5.3m/s | -16.2°C | 64.3% | 418.3hPa | 0V | 00:00:00 | 00:00:00 | 00:00:00 | |
| PU1XMG-16 | 2026-09-06 00:22:23 | -22.82025 | -43.05290 | 98° | 84km/h | 7177m | 4.3m/s | -16.0°C | 62.8% | 419.8hPa | 0V | 00:00:00 | 00:00:00 | 00:00:00 | |
| PU1XMG-16 | 2026-09-06 00:22:18 | -22.82026 | -43.05440 | 80° | 86km/h | 7143m | 5.9m/s | -15.6°C | 60.9% | 421.7hPa | 0V | 00:00:00 | 00:00:00 | 00:00:00 | |
| PU1XMG-16 | 2026-09-06 00:22:11 | -22.82033 | -43.05577 | 92° | 99km/h | 7113m | 4.7m/s | -15.4°C | 63.7% | 423.4hPa | 0V | 00:00:00 | 00:00:00 | 00:00:00 | |
| PU1XMG-16 | 2026-09-06 00:22:05 | -22.82045 | -43.05730 | 89° | 82km/h | 7084m | 5.7m/s | -15.2°C | 64.4% | 425.1hPa | 0V | 00:00:00 | 00:00:00 | 00:00:00 | |
| PU1XMG-16 | 2026-09-06 00:21:59 | -22.82039 | -43.05887 | 90° | 106km/h | 7046m | 5.4m/s | -14.9°C | 65.5% | 427.1hPa | 0V | 00:00:00 | 00:00:00 | 00:00:00 | |
| PU1XMG-16 | 2026-09-06 00:21:54 | -22.82053 | -43.06030 | 82° | 104km/h | 7016m | 7.7m/s | -14.6°C | 62.6% | 428.8hPa | 0V | 00:00:00 | 00:00:00 | 00:00:00 | |
| PU1XMG-16 | 2026-09-06 00:21:49 | -22.82058 | -43.06190 | 87° | 89km/h | 6975m | 7.4m/s | -14.6°C | 42.3% | 431.1hPa | 0V | 00:00:00 | 00:00:00 | 00:00:00 | |
| PU1XMG-16 | 2026-09-06 00:21:43 | -22.82070 | -43.06310 | 88° | 82km/h | 6949m | 7.4m/s | -14.3°C | 41.1% | 432.6hPa | 0V | 00:00:00 | 00:00:00 | 00:00:00 | |
| PU1XMG-16 | 2026-09-06 00:21:37 | -22.82064 | -43.06463 | 96° | 100km/h | 6910m | 6.0m/s | -14.0°C | 38.0% | 434.7hPa | 0V | 00:00:00 | 00:00:00 | 00:00:00 | |
| PU1XMG-16 | 2026-09-06 00:21:31 | -22.82051 | -43.06628 | 89° | 97km/h | 6877m | 5.6m/s | -13.7°C | 38.7% | 436.7hPa | 0V | 00:00:00 | 00:00:00 | 00:00:00 | |
| PU1XMG-16 | 2026-09-06 00:21:26 | -22.82068 | -43.06753 | 84° | 95km/h | 6848m | 4.8m/s | -13.5°C | 37.1% | 438.4hPa | 0V | 00:00:00 | 00:00:00 | 00:00:00 | |
| PU1XMG-16 | 2026-09-06 00:21:20 | -22.82077 | -43.06912 | 84° | 97km/h | 6808m | 5.8m/s | -13.1°C | 38.0% | 440.7hPa | 0V | 00:00:00 | 00:00:00 | 00:00:00 | |
| PU1XMG-16 | 2026-09-06 00:21:15 | -22.82096 | -43.07071 | 83° | 88km/h | 6774m | 6.2m/s | -12.8°C | 36.4% | 442.5hPa | 0V | 00:00:00 | 00:00:00 | 00:00:00 | |
| PU1XMG-16 | 2026-09-06 00:21:08 | -22.82111 | -43.07205 | 87° | 80km/h | 6736m | 6.0m/s | -12.4°C | 33.4% | 444.8hPa | 0V | 00:00:00 | 00:00:00 | 00:00:00 | |
| PU1XMG-16 | 2026-09-06 00:21:03 | -22.82123 | -43.07334 | 84° | 102km/h | 6705m | 7.5m/s | -12.2°C | 33.2% | 446.5hPa | 0V | 00:00:00 | 00:00:00 | 00:00:00 | |
| PU1XMG-16 | 2026-09-06 00:20:58 | -22.82125 | -43.07465 | 93° | 95km/h | 6675m | 6.2m/s | -12.0°C | 32.4% | 448.3hPa | 0V | 00:00:00 | 00:00:00 | 00:00:00 | |
| PU1XMG-16 | 2026-09-06 00:20:53 | -22.82132 | -43.07591 | 85° | 89km/h | 6648m | 4.3m/s | -11.8°C | 33.5% | 449.9hPa | 0V | 00:00:00 | 00:00:00 | 00:00:00 | |
| PU1XMG-16 | 2026-09-06 00:20:47 | -22.82146 | -43.07743 | 86° | 86km/h | 6616m | 5.4m/s | -11.5°C | 32.6% | 451.8hPa | 0V | 00:00:00 | 00:00:00 | 00:00:00 | |
| PU1XMG-16 | 2026-09-06 00:20:42 | -22.82151 | -43.07872 | 88° | 108km/h | 6587m | 6.0m/s | -11.3°C | 29.9% | 453.4hPa | 0V | 00:00:00 | 00:00:00 | 00:00:00 | |
| PU1XMG-16 | 2026-09-06 00:20:37 | -22.82154 | -43.08014 | 94° | 95km/h | 6559m | 6.5m/s | -11.0°C | 30.7% | 455.1hPa | 0V | 00:00:00 | 00:00:00 | 00:00:00 | |
| PU1XMG-16 | 2026-09-06 00:20:32 | -22.82158 | -43.08142 | 89° | 99km/h | 6530m | 4.3m/s | -11.0°C | 30.0% | 456.7hPa | 0V | 00:00:00 | 00:00:00 | 00:00:00 | |
| PU1XMG-16 | 2026-09-06 00:20:26 | -22.82155 | -43.08307 | 91° | 100km/h | 6498m | 7.6m/s | -11.0°C | 37.9% | 458.8hPa | 0V | 00:00:00 | 00:00:00 | 00:00:00 | |
| PU1XMG-16 | 2026-09-06 00:20:21 | -22.82168 | -43.08427 | 81° | 86km/h | 6470m | 6.3m/s | -11.0°C | 43.1% | 460.5hPa | 0V | 00:00:00 | 00:00:00 | 00:00:00 | |
| PU1XMG-16 | 2026-09-06 00:20:15 | -22.82169 | -43.08574 | 95° | 89km/h | 6435m | 4.6m/s | -10.7°C | 43.7% | 462.6hPa | 0V | 00:00:00 | 00:00:00 | 00:00:00 | |
| PU1XMG-16 | 2026-09-06 00:20:10 | -22.82171 | -43.08706 | 88° | 91km/h | 6410m | 6.0m/s | -10.5°C | 44.4% | 464.1hPa | 0V | 00:00:00 | 00:00:00 | 00:00:00 | |
| PU1XMG-16 | 2026-09-06 00:20:05 | -22.82171 | -43.08817 | 93° | 86km/h | 6383m | 6.8m/s | -10.3°C | 43.9% | 465.7hPa | 0V | 00:00:00 | 00:00:00 | 00:00:00 | |
| PU1XMG-16 | 2026-09-06 00:20:00 | -22.82168 | -43.08949 | 93° | 93km/h | 6357m | 6.7m/s | -10.1°C | 44.3% | 467.3hPa | 0V | 00:00:00 | 00:00:00 | 00:00:00 | |
| PU1XMG-16 | 2026-09-06 00:19:54 | -22.82167 | -43.09079 | 95° | 80km/h | 6324m | 5.8m/s | -9.9°C | 43.3% | 469.2hPa | 0V | 00:00:00 | 00:00:00 | 00:00:00 | |
| PU1XMG-16 | 2026-09-06 00:19:48 | -22.82163 | -43.09225 | 84° | 99km/h | 6288m | 5.0m/s | -9.6°C | 42.8% | 471.4hPa | 0V | 00:00:00 | 00:00:00 | 00:00:00 | |
| PU1XMG-16 | 2026-09-06 00:19:42 | -22.82176 | -43.09368 | 92° | 75km/h | 6257m | 5.3m/s | -9.4°C | 43.8% | 473.3hPa | 0V | 00:00:00 | 00:00:00 | 00:00:00 | |
| PU1XMG-16 | 2026-09-06 00:19:37 | -22.82178 | -43.09467 | 93° | 73km/h | 6230m | 6.8m/s | -9.2°C | 44.2% | 474.9hPa | 0V | 00:00:00 | 00:00:00 | 00:00:00 | |
| PU1XMG-16 | 2026-09-06 00:19:32 | -22.82169 | -43.09582 | 90° | 91km/h | 6203m | 5.6m/s | -9.2°C | 44.9% | 476.6hPa | 0V | 00:00:00 | 00:00:00 | 00:00:00 | |
| PU1XMG-16 | 2026-09-06 00:19:26 | -22.82181 | -43.09729 | 85° | 77km/h | 6173m | 3.8m/s | -9.3°C | 45.3% | 478.5hPa | 0V | 00:00:00 | 00:00:00 | 00:00:00 | |
| PU1XMG-16 | 2026-09-06 00:19:20 | -22.82173 | -43.09858 | 97° | 88km/h | 6141m | 4.4m/s | -9.5°C | 52.5% | 480.4hPa | 0V | 00:00:00 | 00:00:00 | 00:00:00 | |
| PU1XMG-16 | 2026-09-06 00:19:15 | -22.82175 | -43.09984 | 85° | 89km/h | 6112m | 5.5m/s | -9.5°C | 57.2% | 482.2hPa | 0V | 00:00:00 | 00:00:00 | 00:00:00 | |
| PU1XMG-16 | 2026-09-06 00:19:10 | -22.82179 | -43.10096 | 87° | 77km/h | 6085m | 6.5m/s | -9.9°C | 84.2% | 483.9hPa | 0V | 00:00:00 | 00:00:00 | 00:00:00 | |
| PU1XMG-16 | 2026-09-06 00:19:04 | -22.82194 | -43.10229 | 86° | 84km/h | 6061m | 5.4m/s | -9.8°C | 0% | 485.3hPa | 0V | 00:00:00 | 00:00:00 | 00:00:00 | |
| PU1XMG-16 | 2026-09-06 00:18:59 | -22.82188 | -43.10348 | 101° | 88km/h | 6033m | 5.7m/s | -9.5°C | 0% | 487.1hPa | 0V | 00:00:00 | 00:00:00 | 00:00:00 | |
| PU1XMG-16 | 2026-09-06 00:18:53 | -22.82157 | -43.10492 | 104° | 88km/h | 6004m | 3.9m/s | -9.2°C | 0% | 488.9hPa | 0V | 00:00:00 | 00:00:00 | 00:00:00 | |
| PU1XMG-16 | 2026-09-06 00:18:48 | -22.82146 | -43.10603 | 91° | 69km/h | 5981m | 4.4m/s | -9.1°C | 0% | 490.4hPa | 0V | 00:00:00 | 00:00:00 | 00:00:00 | |
| PU1XMG-16 | 2026-09-06 00:18:42 | -22.82144 | -43.10723 | 94° | 80km/h | 5953m | 5.7m/s | -8.9°C | 0% | 492.2hPa | 0V | 00:00:00 | 00:00:00 | 00:00:00 | |
| PU1XMG-16 | 2026-09-06 00:18:38 | -22.82139 | -43.10829 | 94° | 78km/h | 5927m | 4.2m/s | -8.7°C | 0% | 493.9hPa | 0V | 00:00:00 | 00:00:00 | 00:00:00 | |
| PU1XMG-16 | 2026-09-06 00:18:31 | -22.82132 | -43.10950 | 99° | 73km/h | 5895m | 4.9m/s | -8.5°C | 0% | 495.9hPa | 0V | 00:00:00 | 00:00:00 | 00:00:00 | |
| PU1XMG-16 | 2026-09-06 00:18:25 | -22.82118 | -43.11076 | 95° | 68km/h | 5866m | 3.6m/s | -8.3°C | 0% | 497.9hPa | 0V | 00:00:00 | 00:00:00 | 00:00:00 | |
| PU1XMG-16 | 2026-09-06 00:18:19 | -22.82112 | -43.11184 | 92° | 68km/h | 5837m | 3.7m/s | -8.1°C | 0% | 499.8hPa | 0V | 00:00:00 | 00:00:00 | 00:00:00 | |
| PU1XMG-16 | 2026-09-06 00:18:12 | -22.82104 | -43.11336 | 104° | 88km/h | 5796m | 4.5m/s | -7.9°C | 0% | 502.2hPa | 0V | 00:00:00 | 00:00:00 | 00:00:00 | |
| PU1XMG-16 | 2026-09-06 00:18:07 | -22.82071 | -43.11440 | 112° | 68km/h | 5771m | 4.5m/s | -7.7°C | 0% | 503.8hPa | 0V | 00:00:00 | 00:00:00 | 00:00:00 | |
| PU1XMG-16 | 2026-09-06 00:18:01 | -22.82049 | -43.11532 | 98° | 62km/h | 5745m | 4.1m/s | -7.5°C | 0% | 505.5hPa | 0V | 00:00:00 | 00:00:00 | 00:00:00 | |
| PU1XMG-16 | 2026-09-06 00:17:56 | -22.82034 | -43.11632 | 100° | 78km/h | 5720m | 5.1m/s | -7.4°C | 0% | 507.1hPa | 0V | 00:00:00 | 00:00:00 | 00:00:00 | |
| PU1XMG-16 | 2026-09-06 00:17:50 | -22.82021 | -43.11767 | 106° | 78km/h | 5690m | 4.0m/s | -7.1°C | 99.9% | 509.1hPa | 0V | 00:00:00 | 00:00:00 | 00:00:00 | |
| PU1XMG-16 | 2026-09-06 00:17:45 | -22.81997 | -43.11855 | 103° | 62km/h | 5666m | 6.4m/s | -7.0°C | 0% | 510.6hPa | 0V | 00:00:00 | 00:00:00 | 00:00:00 | |
| PU1XMG-16 | 2026-09-06 00:17:39 | -22.81979 | -43.11977 | 96° | 77km/h | 5635m | 6.3m/s | -6.7°C | 97.0% | 512.7hPa | 0V | 00:00:00 | 00:00:00 | 00:00:00 | |
| PU1XMG-16 | 2026-09-06 00:17:34 | -22.81969 | -43.12082 | 101° | 75km/h | 5611m | 6.2m/s | -6.5°C | 98.5% | 514.3hPa | 0V | 00:00:00 | 00:00:00 | 00:00:00 | |
| PU1XMG-16 | 2026-09-06 00:17:28 | -22.81947 | -43.12191 | 104° | 64km/h | 5578m | 6.8m/s | -6.3°C | 98.7% | 516.4hPa | 0V | 00:00:00 | 00:00:00 | 00:00:00 | |
| PU1XMG-16 | 2026-09-06 00:17:23 | -22.81927 | -43.12286 | 104° | 80km/h | 5549m | 5.0m/s | -6.1°C | 97.7% | 518.4hPa | 0V | 00:00:00 | 00:00:00 | 00:00:00 | |
| PU1XMG-16 | 2026-09-06 00:17:17 | -22.81911 | -43.12410 | 98° | 69km/h | 5518m | 5.2m/s | -5.8°C | 96.3% | 520.6hPa | 0V | 00:00:00 | 00:00:00 | 00:00:00 | |
| PU1XMG-16 | 2026-09-06 00:17:12 | -22.81893 | -43.12493 | 110° | 66km/h | 5492m | 4.0m/s | -5.7°C | 96.5% | 522.1hPa | 0V | 00:00:00 | 00:00:00 | 00:00:00 | |
| PU1XMG-16 | 2026-09-06 00:17:06 | -22.81862 | -43.12617 | 107° | 80km/h | 5464m | 4.9m/s | -5.6°C | 97.8% | 524.0hPa | 0V | 00:00:00 | 00:00:00 | 00:00:00 | |
| PU1XMG-16 | 2026-09-06 00:17:01 | -22.81834 | -43.12714 | 110° | 68km/h | 5442m | 5.9m/s | -5.5°C | 99.0% | 525.5hPa | 0V | 00:00:00 | 00:00:00 | 00:00:00 | |
| PU1XMG-16 | 2026-09-06 00:16:56 | -22.81807 | -43.12815 | 105° | 82km/h | 5417m | 6.4m/s | -5.3°C | 0% | 527.2hPa | 0V | 00:00:00 | 00:00:00 | 00:00:00 | |
| PU1XMG-16 | 2026-09-06 00:16:51 | -22.81783 | -43.12926 | 105° | 78km/h | 5392m | 3.7m/s | -5.3°C | 0% | 528.8hPa | 0V | 00:00:00 | 00:00:00 | 00:00:00 | |
| PU1XMG-16 | 2026-09-06 00:16:46 | -22.81760 | -43.13014 | 108° | 60km/h | 5366m | 5.3m/s | -5.0°C | 0% | 530.4hPa | 0V | 00:00:00 | 00:00:00 | 00:00:00 | |
| PU1XMG-16 | 2026-09-06 00:16:41 | -22.81742 | -43.13114 | 99° | 75km/h | 5336m | 4.7m/s | -4.7°C | 0% | 532.4hPa | 0V | 00:00:00 | 00:00:00 | 00:00:00 | |
| PU1XMG-16 | 2026-09-06 00:16:35 | -22.81732 | -43.13213 | 98° | 64km/h | 5309m | 4.6m/s | -4.5°C | 0% | 534.3hPa | 0V | 00:00:00 | 00:00:00 | 00:00:00 | |
| PU1XMG-16 | 2026-09-06 00:16:29 | -22.81710 | -43.13306 | 109° | 58km/h | 5281m | 6.4m/s | -4.4°C | 0% | 536.2hPa | 0V | 00:00:00 | 00:00:00 | 00:00:00 | |
| PU1XMG-16 | 2026-09-06 00:16:18 | -22.81665 | -43.13495 | 104° | 66km/h | 5230m | 6.5m/s | -4.1°C | 0% | 539.8hPa | 0V | 00:00:00 | 00:00:00 | 00:00:00 | |
| PU1XMG-16 | 2026-09-06 00:16:13 | -22.81647 | -43.13576 | 107° | 58km/h | 5207m | 3.4m/s | -4.1°C | 0% | 541.3hPa | 0V | 00:00:00 | 00:00:00 | 00:00:00 | |
| PU1XMG-16 | 2026-09-06 00:16:08 | -22.81628 | -43.13662 | 99° | 71km/h | 5182m | 5.7m/s | -3.9°C | 0% | 542.9hPa | 0V | 00:00:00 | 00:00:00 | 00:00:00 | |
| PU1XMG-16 | 2026-09-06 00:16:02 | -22.81612 | -43.13778 | 103° | 78km/h | 5154m | 5.8m/s | -3.8°C | 0% | 544.8hPa | 0V | 00:00:00 | 00:00:00 | 00:00:00 | |
| PU1XMG-16 | 2026-09-06 00:15:56 | -22.81595 | -43.13897 | 98° | 66km/h | 5128m | 4.3m/s | -3.7°C | 0% | 546.7hPa | 0V | 00:00:00 | 00:00:00 | 00:00:00 | |
| PU1XMG-16 | 2026-09-06 00:15:50 | -22.81577 | -43.13996 | 100° | 66km/h | 5104m | 2.4m/s | -3.6°C | 0% | 548.5hPa | 0V | 00:00:00 | 00:00:00 | 00:00:00 | |
| PU1XMG-16 | 2026-09-06 00:15:44 | -22.81566 | -43.14098 | 105° | 57km/h | 5078m | 2.4m/s | -3.5°C | 0% | 550.3hPa | 0V | 00:00:00 | 00:00:00 | 00:00:00 | |
| PU1XMG-16 | 2026-09-06 00:15:38 | -22.81540 | -43.14207 | 103° | 77km/h | 5051m | 2.7m/s | -3.2°C | 0% | 552.2hPa | 0V | 00:00:00 | 00:00:00 | 00:00:00 | |
| PU1XMG-16 | 2026-09-06 00:15:33 | -22.81517 | -43.14313 | 106° | 78km/h | 5029m | 3.5m/s | -3.4°C | 0% | 553.6hPa | 0V | 00:00:00 | 00:00:00 | 00:00:00 | |
| PU1XMG-16 | 2026-09-06 00:15:28 | -22.81488 | -43.14405 | 112° | 68km/h | 5012m | 5.6m/s | -3.2°C | 0% | 554.8hPa | 0V | 00:00:00 | 00:00:00 | 00:00:00 | |
| PU1XMG-16 | 2026-09-06 00:15:22 | -22.81467 | -43.14519 | 98° | 77km/h | 4986m | 5.2m/s | -3.0°C | 0% | 556.6hPa | 0V | 00:00:00 | 00:00:00 | 00:00:00 | |
| PU1XMG-16 | 2026-09-06 00:15:17 | -22.81458 | -43.14622 | 97° | 75km/h | 4964m | 4.6m/s | -2.6°C | 0% | 558.2hPa | 0V | 00:00:00 | 00:00:00 | 00:00:00 | |
| PU1XMG-16 | 2026-09-06 00:15:11 | -22.81444 | -43.14744 | 102° | 68km/h | 4938m | 5.0m/s | -2.3°C | 0% | 560.0hPa | 0V | 00:00:00 | 00:00:00 | 00:00:00 | |
| PU1XMG-16 | 2026-09-06 00:15:05 | -22.81431 | -43.14851 | 97° | 64km/h | 4901m | 7.0m/s | -2.1°C | 0% | 562.5hPa | 0V | 00:00:00 | 00:00:00 | 00:00:00 | |
| PU1XMG-16 | 2026-09-06 00:15:00 | -22.81427 | -43.14942 | 92° | 60km/h | 4866m | 6.7m/s | -2.0°C | 0% | 565.0hPa | 0V | 00:00:00 | 00:00:00 | 00:00:00 | |
| PU1XMG-16 | 2026-09-06 00:14:55 | -22.81428 | -43.15042 | 87° | 62km/h | 4834m | 5.6m/s | -1.7°C | 0% | 567.3hPa | 0V | 00:00:00 | 00:00:00 | 00:00:00 | |
| PU1XMG-16 | 2026-09-06 00:14:48 | -22.81434 | -43.15151 | 90° | 64km/h | 4802m | 5.5m/s | -1.7°C | 0% | 569.6hPa | 0V | 00:00:00 | 00:00:00 | 00:00:00 | |
| PU1XMG-16 | 2026-09-06 00:14:42 | -22.81429 | -43.15255 | 91° | 60km/h | 4765m | 6.5m/s | -1.4°C | 0% | 572.2hPa | 0V | 00:00:00 | 00:00:00 | 00:00:00 | |
| PU1XMG-16 | 2026-09-06 00:14:37 | -22.81428 | -43.15351 | 94° | 82km/h | 4735m | 7.7m/s | -1.2°C | 0% | 574.1hPa | 0V | 00:00:00 | 00:00:00 | 00:00:00 | |
| PU1XMG-16 | 2026-09-06 00:14:32 | -22.81411 | -43.15466 | 104° | 84km/h | 4709m | 4.4m/s | -1.1°C | 0% | 576.1hPa | 0V | 00:00:00 | 00:00:00 | 00:00:00 | |
| PU1XMG-16 | 2026-09-06 00:14:26 | -22.81382 | -43.15594 | 106° | 78km/h | 4685m | 6.5m/s | -1.1°C | 0% | 578.0hPa | 0V | 00:00:00 | 00:00:00 | 00:00:00 | |
| PU1XMG-16 | 2026-09-06 00:14:21 | -22.81367 | -43.15698 | 96° | 73km/h | 4660m | 5.6m/s | -0.9°C | 0% | 579.8hPa | 0V | 00:00:00 | 00:00:00 | 00:00:00 | |
| PU1XMG-16 | 2026-09-06 00:14:15 | -22.81358 | -43.15818 | 94° | 69km/h | 4624m | 7.2m/s | -0.6°C | 0% | 582.3hPa | 0V | 00:00:00 | 00:00:00 | 00:00:00 | |
| PU1XMG-16 | 2026-09-06 00:14:09 | -22.81345 | -43.15936 | 101° | 73km/h | 4587m | 7.8m/s | -0.4°C | 0% | 585.1hPa | 0V | 00:00:00 | 00:00:00 | 00:00:00 | |
| PU1XMG-16 | 2026-09-06 00:14:04 | -22.81333 | -43.16035 | 94° | 73km/h | 4552m | 6.7m/s | -0.2°C | 0% | 587.7hPa | 0V | 00:00:00 | 00:00:00 | 00:00:00 | |
| PU1XMG-16 | 2026-09-06 00:13:58 | -22.81329 | -43.16153 | 91° | 69km/h | 4511m | 8.2m/s | -0.0°C | 0% | 590.8hPa | 0V | 00:00:00 | 00:00:00 | 00:00:00 | |
| PU1XMG-16 | 2026-09-06 00:13:52 | -22.81331 | -43.16263 | 91° | 68km/h | 4471m | 6.9m/s | 0.2°C | 0% | 593.6hPa | 0V | 00:00:00 | 00:00:00 | 00:00:00 | |
| PU1XMG-16 | 2026-09-06 00:13:47 | -22.81326 | -43.16353 | 96° | 62km/h | 4436m | 8.4m/s | 0.3°C | 0% | 596.3hPa | 0V | 00:00:00 | 00:00:00 | 00:00:00 | |
| PU1XMG-16 | 2026-09-06 00:13:42 | -22.81327 | -43.16432 | 85° | 57km/h | 4396m | 8.9m/s | 0.6°C | 0% | 599.0hPa | 0V | 00:00:00 | 00:00:00 | 00:00:00 | |
| PU1XMG-16 | 2026-09-06 00:13:36 | -22.81338 | -43.16530 | 83° | 62km/h | 4351m | 7.3m/s | 0.8°C | 0% | 602.5hPa | 0V | 00:00:00 | 00:00:00 | 00:00:00 | |
| PU1XMG-16 | 2026-09-06 00:13:31 | -22.81346 | -43.16617 | 90° | 62km/h | 4317m | 7.1m/s | 1.0°C | 0% | 605.0hPa | 0V | 00:00:00 | 00:00:00 | 00:00:00 | |
| PU1XMG-16 | 2026-09-06 00:13:25 | -22.81343 | -43.16716 | 89° | 55km/h | 4276m | 8.2m/s | 1.2°C | 0% | 608.1hPa | 0V | 00:00:00 | 00:00:00 | 00:00:00 | |
| PU1XMG-16 | 2026-09-06 00:13:20 | -22.81345 | -43.16790 | 86° | 57km/h | 4239m | 6.7m/s | 1.5°C | 0% | 610.9hPa | 0V | 00:00:00 | 00:00:00 | 00:00:00 | |
| PU1XMG-16 | 2026-09-06 00:13:14 | -22.81358 | -43.16892 | 83° | 66km/h | 4199m | 5.9m/s | 1.7°C | 0% | 614.2hPa | 0V | 00:00:00 | 00:00:00 | 00:00:00 | |
| PU1XMG-16 | 2026-09-06 00:13:10 | -22.81356 | -43.16995 | 91° | 77km/h | 4166m | 7.2m/s | 1.8°C | 0% | 616.6hPa | 0V | 00:00:00 | 00:00:00 | 00:00:00 | |
| PU1XMG-16 | 2026-09-06 00:13:03 | -22.81362 | -43.17114 | 90° | 69km/h | 4121m | 9.2m/s | 2.1°C | 0% | 619.9hPa | 0V | 00:00:00 | 00:00:00 | 00:00:00 | |
| PU1XMG-16 | 2026-09-06 00:12:58 | -22.81362 | -43.17201 | 87° | 58km/h | 4083m | 7.9m/s | 2.3°C | 0% | 622.9hPa | 0V | 00:00:00 | 00:00:00 | 00:00:00 | |
| PU1XMG-16 | 2026-09-06 00:12:53 | -22.81368 | -43.17284 | 90° | 58km/h | 4047m | 6.3m/s | 2.5°C | 0% | 625.6hPa | 0V | 00:00:00 | 00:00:00 | 00:00:00 | |
| PU1XMG-16 | 2026-09-06 00:12:47 | -22.81372 | -43.17381 | 87° | 60km/h | 4008m | 4.8m/s | 2.8°C | 0% | 628.7hPa | 0V | 00:00:00 | 00:00:00 | 00:00:00 | |
| PU1XMG-16 | 2026-09-06 00:12:41 | -22.81379 | -43.17478 | 87° | 60km/h | 3972m | 6.6m/s | 3.0°C | 0% | 631.5hPa | 0V | 00:00:00 | 00:00:00 | 00:00:00 | |
| PU1XMG-16 | 2026-09-06 00:12:36 | -22.81384 | -43.17559 | 88° | 60km/h | 3942m | 6.5m/s | 3.0°C | 0% | 633.8hPa | 0V | 00:00:00 | 00:00:00 | 00:00:00 | |
| PU1XMG-16 | 2026-09-06 00:12:30 | -22.81385 | -43.17662 | 97° | 60km/h | 3903m | 5.7m/s | 3.3°C | 0% | 636.7hPa | 0V | 00:00:00 | 00:00:00 | 00:00:00 | |
| PU1XMG-16 | 2026-09-06 00:12:22 | -22.81377 | -43.17791 | 94° | 64km/h | 3854m | 5.4m/s | 3.6°C | 0% | 640.6hPa | 0V | 00:00:00 | 00:00:00 | 00:00:00 | |
| PU1XMG-16 | 2026-09-06 00:12:16 | -22.81372 | -43.17900 | 90° | 62km/h | 3817m | 5.7m/s | 3.8°C | 0% | 643.7hPa | 0V | 00:00:00 | 00:00:00 | 00:00:00 | |
| PU1XMG-16 | 2026-09-06 00:12:11 | -22.81376 | -43.17989 | 88° | 62km/h | 3790m | 7.6m/s | 3.9°C | 0% | 645.8hPa | 0V | 00:00:00 | 00:00:00 | 00:00:00 | |
| PU1XMG-16 | 2026-09-06 00:12:06 | -22.81376 | -43.18068 | 94° | 62km/h | 3758m | 5.1m/s | 4.1°C | 0% | 648.3hPa | 0V | 00:00:00 | 00:00:00 | 00:00:00 | |
| PU1XMG-16 | 2026-09-06 00:12:00 | -22.81375 | -43.18178 | 91° | 66km/h | 3720m | 6.2m/s | 4.3°C | 0% | 651.3hPa | 0V | 00:00:00 | 00:00:00 | 00:00:00 | |
| PU1XMG-16 | 2026-09-06 00:11:54 | -22.81369 | -43.18283 | 95° | 62km/h | 3682m | 7.0m/s | 4.5°C | 0% | 654.1hPa | 0V | 00:00:00 | 00:00:00 | 00:00:00 | |
| PU1XMG-16 | 2026-09-06 00:11:49 | -22.81369 | -43.18368 | 96° | 60km/h | 3655m | 6.1m/s | 4.6°C | 0% | 656.5hPa | 0V | 00:00:00 | 00:00:00 | 00:00:00 | |
| PU1XMG-16 | 2026-09-06 00:11:43 | -22.81351 | -43.18468 | 104° | 66km/h | 3622m | 6.0m/s | 4.8°C | 0% | 659.1hPa | 0V | 00:00:00 | 00:00:00 | 00:00:00 | |
| PU1XMG-16 | 2026-09-06 00:11:38 | -22.81337 | -43.18554 | 98° | 62km/h | 3595m | 4.5m/s | 4.9°C | 0% | 661.2hPa | 0V | 00:00:00 | 00:00:00 | 00:00:00 | |
| PU1XMG-16 | 2026-09-06 00:11:33 | -22.81335 | -43.18629 | 92° | 53km/h | 3569m | 5.2m/s | 5.0°C | 0% | 663.4hPa | 0V | 00:00:00 | 00:00:00 | 00:00:00 | |
| PU1XMG-16 | 2026-09-06 00:11:27 | -22.81328 | -43.18727 | 91° | 60km/h | 3538m | 5.5m/s | 5.2°C | 0% | 665.9hPa | 0V | 00:00:00 | 00:00:00 | 00:00:00 | |
| PU1XMG-16 | 2026-09-06 00:11:22 | -22.81323 | -43.18812 | 97° | 62km/h | 3512m | 5.5m/s | 5.3°C | 0% | 667.8hPa | 0V | 00:00:00 | 00:00:00 | 00:00:00 | |
| PU1XMG-16 | 2026-09-06 00:11:11 | -22.81312 | -43.18996 | 90° | 62km/h | 3457m | 6.2m/s | 5.6°C | 0% | 672.4hPa | 0V | 00:00:00 | 00:00:00 | 00:00:00 | |
| PU1XMG-16 | 2026-09-06 00:11:05 | -22.81302 | -43.19094 | 95° | 58km/h | 3426m | 6.1m/s | 5.7°C | 0% | 675.1hPa | 0V | 00:00:00 | 00:00:00 | 00:00:00 | |
| PU1XMG-16 | 2026-09-06 00:10:59 | -22.81298 | -43.19196 | 93° | 58km/h | 3395m | 3.9m/s | 5.8°C | 0% | 677.6hPa | 0V | 00:00:00 | 00:00:00 | 00:00:00 | |
| PU1XMG-16 | 2026-09-06 00:10:54 | -22.81297 | -43.19284 | 94° | 68km/h | 3372m | 4.0m/s | 6.0°C | 0% | 679.4hPa | 0V | 00:00:00 | 00:00:00 | 00:00:00 | |
| PU1XMG-16 | 2026-09-06 00:10:49 | -22.81294 | -43.19372 | 95° | 60km/h | 3350m | 3.3m/s | 6.1°C | 0% | 681.5hPa | 0V | 00:00:00 | 00:00:00 | 00:00:00 | |
| PU1XMG-16 | 2026-09-06 00:10:43 | -22.81290 | -43.19469 | 93° | 64km/h | 3319m | 5.1m/s | 6.1°C | 0% | 683.9hPa | 0V | 00:00:00 | 00:00:00 | 00:00:00 | |
| PU1XMG-16 | 2026-09-06 00:10:38 | -22.81282 | -43.19558 | 96° | 68km/h | 3296m | 5.2m/s | 6.2°C | 0% | 685.7hPa | 0V | 00:00:00 | 00:00:00 | 00:00:00 | |
| PU1XMG-16 | 2026-09-06 00:10:33 | -22.81276 | -43.19643 | 97° | 62km/h | 3272m | 5.0m/s | 6.3°C | 0% | 687.6hPa | 0V | 00:00:00 | 00:00:00 | 00:00:00 | |
| PU1XMG-16 | 2026-09-06 00:10:28 | -22.81267 | -43.19727 | 98° | 66km/h | 3252m | 4.6m/s | 6.4°C | 0% | 689.4hPa | 0V | 00:00:00 | 00:00:00 | 00:00:00 | |
| PU1XMG-16 | 2026-09-06 00:10:20 | -22.81256 | -43.19869 | 95° | 64km/h | 3223m | 5.4m/s | 6.5°C | 0% | 692.1hPa | 0V | 00:00:00 | 00:00:00 | 00:00:00 | |
| PU1XMG-16 | 2026-09-06 00:10:14 | -22.81249 | -43.19970 | 95° | 62km/h | 3198m | 4.0m/s | 6.6°C | 99.9% | 694.1hPa | 0V | 00:00:00 | 00:00:00 | 00:00:00 | |
| PU1XMG-16 | 2026-09-06 00:10:08 | -22.81242 | -43.20074 | 96° | 60km/h | 3175m | 4.0m/s | 6.7°C | 99.9% | 695.9hPa | 0V | 00:00:00 | 00:00:00 | 00:00:00 | |
| PU1XMG-16 | 2026-09-06 00:09:54 | -22.81224 | -43.20307 | 98° | 64km/h | 3120m | 6.0m/s | 7.0°C | 98.6% | 700.6hPa | 0V | 00:00:00 | 00:00:00 | 00:00:00 | |
| PU1XMG-16 | 2026-09-06 00:09:49 | -22.81220 | -43.20403 | 93° | 69km/h | 3097m | 3.7m/s | 7.2°C | 97.4% | 702.5hPa | 0V | 00:00:00 | 00:00:00 | 00:00:00 | |
| PU1XMG-16 | 2026-09-06 00:09:43 | -22.81207 | -43.20508 | 103° | 68km/h | 3067m | 6.7m/s | 7.4°C | 91.2% | 705.0hPa | 0V | 00:00:00 | 00:00:00 | 00:00:00 | |
| PU1XMG-16 | 2026-09-06 00:09:38 | -22.81199 | -43.20599 | 98° | 62km/h | 3045m | 5.3m/s | 7.6°C | 90.2% | 707.1hPa | 0V | 00:00:00 | 00:00:00 | 00:00:00 | |
| PU1XMG-16 | 2026-09-06 00:09:33 | -22.81186 | -43.20686 | 109° | 66km/h | 3019m | 4.1m/s | 7.8°C | 88.1% | 709.3hPa | 0V | 00:00:00 | 00:00:00 | 00:00:00 | |
| PU1XMG-16 | 2026-09-06 00:09:27 | -22.81165 | -43.20793 | 89° | 66km/h | 2990m | 4.0m/s | 8.1°C | 86.7% | 711.8hPa | 0V | 00:00:00 | 00:00:00 | 00:00:00 | |
| PU1XMG-16 | 2026-09-06 00:09:22 | -22.81166 | -43.20877 | 91° | 64km/h | 2967m | 4.6m/s | 8.3°C | 85.4% | 713.8hPa | 0V | 00:00:00 | 00:00:00 | 00:00:00 | |
| PU1XMG-16 | 2026-09-06 00:09:18 | -22.81168 | -43.20957 | 101° | 49km/h | 2938m | 5.3m/s | 8.6°C | 84.2% | 716.3hPa | 0V | 00:00:00 | 00:00:00 | 00:00:00 | |
| PU1XMG-16 | 2026-09-06 00:09:10 | -22.81154 | -43.21065 | 96° | 53km/h | 2901m | 5.1m/s | 8.9°C | 82.9% | 719.4hPa | 0V | 00:00:00 | 00:00:00 | 00:00:00 | |
| PU1XMG-16 | 2026-09-06 00:09:05 | -22.81150 | -43.21142 | 101° | 55km/h | 2876m | 3.9m/s | 9.1°C | 82.4% | 721.5hPa | 0V | 00:00:00 | 00:00:00 | 00:00:00 | |
| PU1XMG-16 | 2026-09-06 00:08:59 | -22.81137 | -43.21237 | 104° | 66km/h | 2844m | 5.6m/s | 9.3°C | 79.3% | 724.1hPa | 0V | 00:00:00 | 00:00:00 | 00:00:00 | |
| PU1XMG-16 | 2026-09-06 00:08:54 | -22.81121 | -43.21318 | 100° | 57km/h | 2821m | 5.4m/s | 9.5°C | 77.7% | 726.4hPa | 0V | 00:00:00 | 00:00:00 | 00:00:00 | |
| PU1XMG-16 | 2026-09-06 00:08:48 | -22.81115 | -43.21406 | 92° | 44km/h | 2786m | 5.2m/s | 9.8°C | 76.7% | 729.2hPa | 0V | 00:00:00 | 00:00:00 | 00:00:00 | |
| PU1XMG-16 | 2026-09-06 00:08:43 | -22.81111 | -43.21473 | 95° | 51km/h | 2762m | 7.7m/s | 10.0°C | 79.5% | 731.6hPa | 0V | 00:00:00 | 00:00:00 | 00:00:00 | |
| PU1XMG-16 | 2026-09-06 00:08:37 | -22.81106 | -43.21560 | 90° | 49km/h | 2726m | 5.3m/s | 10.3°C | 78.8% | 734.7hPa | 0V | 00:00:00 | 00:00:00 | 00:00:00 | |
| PU1XMG-16 | 2026-09-06 00:08:32 | -22.81112 | -43.21652 | 84° | 51km/h | 2690m | 5.5m/s | 10.5°C | 78.3% | 737.7hPa | 0V | 00:00:00 | 00:00:00 | 00:00:00 | |
| PU1XMG-16 | 2026-09-06 00:08:27 | -22.81112 | -43.21721 | 92° | 47km/h | 2663m | 7.7m/s | 10.8°C | 77.6% | 740.0hPa | 0V | 00:00:00 | 00:00:00 | 00:00:00 | |
| PU1XMG-16 | 2026-09-06 00:08:20 | -22.81110 | -43.21802 | 95° | 42km/h | 2628m | 5.1m/s | 11.1°C | 77.0% | 743.4hPa | 0V | 00:00:00 | 00:00:00 | 00:00:00 | |
| PU1XMG-16 | 2026-09-06 00:08:14 | -22.81105 | -43.21876 | 89° | 47km/h | 2593m | 5.9m/s | 11.5°C | 75.7% | 746.4hPa | 0V | 00:00:00 | 00:00:00 | 00:00:00 | |
| PU1XMG-16 | 2026-09-06 00:08:08 | -22.81106 | -43.21964 | 95° | 55km/h | 2557m | 5.3m/s | 11.7°C | 76.3% | 749.7hPa | 0V | 00:00:00 | 00:00:00 | 00:00:00 | |
| PU1XMG-16 | 2026-09-06 00:08:02 | -22.81103 | -43.22053 | 91° | 53km/h | 2522m | 5.4m/s | 12.0°C | 75.7% | 752.8hPa | 0V | 00:00:00 | 00:00:00 | 00:00:00 | |
| PU1XMG-16 | 2026-09-06 00:07:57 | -22.81093 | -43.22142 | 97° | 51km/h | 2485m | 6.7m/s | 12.3°C | 75.0% | 756.2hPa | 0V | 00:00:00 | 00:00:00 | 00:00:00 | |
| PU1XMG-16 | 2026-09-06 00:07:51 | -22.81085 | -43.22216 | 91° | 58km/h | 2455m | 4.8m/s | 12.4°C | 74.7% | 758.7hPa | 0V | 00:00:00 | 00:00:00 | 00:00:00 | |
| PU1XMG-16 | 2026-09-06 00:07:45 | -22.81085 | -43.22298 | 91° | 55km/h | 2422m | 5.4m/s | 12.7°C | 72.7% | 761.8hPa | 0V | 00:00:00 | 00:00:00 | 00:00:00 | |
| PU1XMG-16 | 2026-09-06 00:07:39 | -22.81073 | -43.22397 | 101° | 58km/h | 2391m | 6.1m/s | 13.0°C | 71.1% | 764.5hPa | 0V | 00:00:00 | 00:00:00 | 00:00:00 | |
| PU1XMG-16 | 2026-09-06 00:07:34 | -22.81060 | -43.22471 | 101° | 57km/h | 2365m | 6.5m/s | 13.1°C | 73.1% | 766.8hPa | 0V | 00:00:00 | 00:00:00 | 00:00:00 | |
| PU1XMG-16 | 2026-09-06 00:07:27 | -22.81042 | -43.22556 | 103° | 44km/h | 2325m | 4.0m/s | 13.4°C | 72.8% | 770.5hPa | 0V | 00:00:00 | 00:00:00 | 00:00:00 | |
| PU1XMG-16 | 2026-09-06 00:07:21 | -22.81031 | -43.22635 | 100° | 51km/h | 2295m | 4.9m/s | 13.6°C | 73.0% | 773.4hPa | 0V | 00:00:00 | 00:00:00 | 00:00:00 | |
| PU1XMG-16 | 2026-09-06 00:07:10 | -22.80992 | -43.22783 | 103° | 49km/h | 2235m | 4.3m/s | 13.9°C | 74.5% | 779.0hPa | 0V | 00:00:00 | 00:00:00 | 00:00:00 | |
| PU1XMG-16 | 2026-09-06 00:07:05 | -22.80973 | -43.22856 | 108° | 55km/h | 2208m | 4.6m/s | 14.0°C | 72.9% | 781.3hPa | 0V | 00:00:00 | 00:00:00 | 00:00:00 | |
| PU1XMG-16 | 2026-09-06 00:06:59 | -22.80949 | -43.22943 | 108° | 47km/h | 2177m | 5.5m/s | 14.3°C | 71.4% | 784.1hPa | 0V | 00:00:00 | 00:00:00 | 00:00:00 | |
| PU1XMG-16 | 2026-09-06 00:06:54 | -22.80943 | -43.23014 | 97° | 58km/h | 2152m | 5.7m/s | 14.5°C | 70.4% | 786.3hPa | 0V | 00:00:00 | 00:00:00 | 00:00:00 | |
| PU1XMG-16 | 2026-09-06 00:06:49 | -22.80928 | -43.23085 | 104° | 53km/h | 2126m | 6.6m/s | 14.6°C | 70.5% | 788.8hPa | 0V | 00:00:00 | 00:00:00 | 00:00:00 | |
| PU1XMG-16 | 2026-09-06 00:06:44 | -22.80911 | -43.23160 | 98° | 53km/h | 2101m | 6.0m/s | 14.7°C | 69.9% | 791.3hPa | 0V | 00:00:00 | 00:00:00 | 00:00:00 | |
| PU1XMG-16 | 2026-09-06 00:06:38 | -22.80895 | -43.23245 | 101° | 49km/h | 2070m | 6.3m/s | 14.9°C | 69.8% | 794.2hPa | 0V | 00:00:00 | 00:00:00 | 00:00:00 | |
| PU1XMG-16 | 2026-09-06 00:06:32 | -22.80882 | -43.23326 | 102° | 62km/h | 2035m | 4.0m/s | 14.9°C | 72.1% | 797.4hPa | 0V | 00:00:00 | 00:00:00 | 00:00:00 | |
| PU1XMG-16 | 2026-09-06 00:06:26 | -22.80866 | -43.23416 | 103° | 55km/h | 2000m | 6.3m/s | 15.2°C | 71.2% | 800.7hPa | 0V | 00:00:00 | 00:00:00 | 00:00:00 | |
| PU1XMG-16 | 2026-09-06 00:06:21 | -22.80855 | -43.23499 | 102° | 53km/h | 1965m | 5.6m/s | 15.3°C | 71.9% | 803.8hPa | 0V | 00:00:00 | 00:00:00 | 00:00:00 | |
| PU1XMG-16 | 2026-09-06 00:06:15 | -22.80845 | -43.23574 | 101° | 58km/h | 1938m | 5.0m/s | 15.3°C | 73.2% | 806.5hPa | 0V | 00:00:00 | 00:00:00 | 00:00:00 | |
| PU1XMG-16 | 2026-09-06 00:06:12 | -22.80833 | -43.23647 | 98° | 57km/h | 1912m | 5.2m/s | 14.8°C | 76.8% | 809.1hPa | 0V | 00:00:00 | 00:00:00 | 00:00:00 | |
| PU1XMG-16 | 2026-09-06 00:06:06 | -22.80821 | -43.23718 | 101° | 47km/h | 1886m | 4.6m/s | 14.9°C | 77.1% | 811.5hPa | 0V | 00:00:00 | 00:00:00 | 00:00:00 | |
| PU1XMG-16 | 2026-09-06 00:05:59 | -22.80806 | -43.23784 | 94° | 42km/h | 1850m | 4.7m/s | 15.2°C | 76.0% | 814.8hPa | 0V | 00:00:00 | 00:00:00 | 00:00:00 | |
| PU1XMG-16 | 2026-09-06 00:05:54 | -22.80793 | -43.23847 | 113° | 49km/h | 1826m | 5.2m/s | 15.0°C | 77.4% | 817.1hPa | 0V | 00:00:00 | 00:00:00 | 00:00:00 | |
| PU1XMG-16 | 2026-09-06 00:05:50 | -22.80771 | -43.23906 | 120° | 44km/h | 1802m | 6.1m/s | 15.1°C | 77.8% | 819.5hPa | 0V | 00:00:00 | 00:00:00 | 00:00:00 | |
| PU1XMG-16 | 2026-09-06 00:05:43 | -22.80742 | -43.23970 | 126° | 44km/h | 1767m | 4.5m/s | 15.4°C | 76.4% | 822.9hPa | 0V | 00:00:00 | 00:00:00 | 00:00:00 | |
| PU1XMG-16 | 2026-09-06 00:05:39 | -22.80718 | -43.24021 | 115° | 46km/h | 1742m | 5.4m/s | 15.5°C | 76.4% | 825.4hPa | 0V | 00:00:00 | 00:00:00 | 00:00:00 | |
| PU1XMG-16 | 2026-09-06 00:05:32 | -22.80688 | -43.24085 | 127° | 44km/h | 1713m | 6.6m/s | 15.6°C | 76.0% | 828.4hPa | 0V | 00:00:00 | 00:00:00 | 00:00:00 | |
| PU1XMG-16 | 2026-09-06 00:05:28 | -22.80665 | -43.24134 | 113° | 46km/h | 1683m | 4.0m/s | 15.3°C | 75.8% | 831.0hPa | 0V | 00:00:00 | 00:00:00 | 00:00:00 | |
| PU1XMG-16 | 2026-09-06 00:05:23 | -22.80641 | -43.24197 | 120° | 46km/h | 1650m | 4.6m/s | 14.6°C | 86.2% | 834.1hPa | 0V | 00:00:00 | 00:00:00 | 00:00:00 | |
| PU1XMG-16 | 2026-09-06 00:05:16 | -22.80614 | -43.24246 | 117° | 38km/h | 1624m | 5.6m/s | 13.9°C | 99.0% | 836.8hPa | 0V | 00:00:00 | 00:00:00 | 00:00:00 | |
| PU1XMG-16 | 2026-09-06 00:05:11 | -22.80603 | -43.24308 | 87° | 38km/h | 1587m | 6.5m/s | 14.1°C | 98.4% | 840.6hPa | 0V | 00:00:00 | 00:00:00 | 00:00:00 | |
| PU1XMG-16 | 2026-09-06 00:05:06 | -22.80604 | -43.24352 | 84° | 31km/h | 1560m | 6.1m/s | 14.1°C | 98.7% | 843.3hPa | 0V | 00:00:00 | 00:00:00 | 00:00:00 | |
| PU1XMG-16 | 2026-09-06 00:05:01 | -22.80600 | -43.24404 | 96° | 31km/h | 1523m | 5.6m/s | 14.3°C | 98.3% | 846.8hPa | 0V | 00:00:00 | 00:00:00 | 00:00:00 | |
| PU1XMG-16 | 2026-09-06 00:04:55 | -22.80596 | -43.24439 | 100° | 26km/h | 1491m | 7.6m/s | 14.4°C | 99.2% | 849.7hPa | 0V | 00:00:00 | 00:00:00 | 00:00:00 | |
| PU1XMG-16 | 2026-09-06 00:04:49 | -22.80591 | -43.24471 | 97° | 27km/h | 1464m | 5.9m/s | 14.6°C | 98.3% | 852.6hPa | 0V | 00:00:00 | 00:00:00 | 00:00:00 | |
| PU1XMG-16 | 2026-09-06 00:04:45 | -22.80588 | -43.24502 | 85° | 26km/h | 1435m | 4.5m/s | 14.8°C | 96.9% | 855.8hPa | 0V | 00:00:00 | 00:00:00 | 00:00:00 | |
| PU1XMG-16 | 2026-09-06 00:04:39 | -22.80590 | -43.24535 | 84° | 22km/h | 1402m | 6.6m/s | 15.0°C | 96.5% | 858.9hPa | 0V | 00:00:00 | 00:00:00 | 00:00:00 | |
| PU1XMG-16 | 2026-09-06 00:04:33 | -22.80589 | -43.24566 | 88° | 22km/h | 1376m | 5.3m/s | 15.1°C | 97.4% | 861.8hPa | 0V | 00:00:00 | 00:00:00 | 00:00:00 | |
| PU1XMG-16 | 2026-09-06 00:04:28 | -22.80589 | -43.24604 | 77° | 24km/h | 1341m | 5.2m/s | 15.3°C | 96.7% | 865.1hPa | 0V | 00:00:00 | 00:00:00 | 00:00:00 | |
| PU1XMG-16 | 2026-09-06 00:04:22 | -22.80593 | -43.24632 | 74° | 18km/h | 1313m | 7.2m/s | 15.4°C | 95.8% | 867.8hPa | 0V | 00:00:00 | 00:00:00 | 00:00:00 | |
| PU1XMG-16 | 2026-09-06 00:04:17 | -22.80606 | -43.24660 | 57° | 22km/h | 1276m | 6.6m/s | 15.8°C | 93.9% | 871.7hPa | 0V | 00:00:00 | 00:00:00 | 00:00:00 | |
| PU1XMG-16 | 2026-09-06 00:04:11 | -22.80617 | -43.24677 | 30° | 16km/h | 1247m | 6.6m/s | 16.0°C | 92.8% | 874.7hPa | 0V | 00:00:00 | 00:00:00 | 00:00:00 | |
| PU1XMG-16 | 2026-09-06 00:04:06 | -22.80632 | -43.24696 | 64° | 20km/h | 1209m | 6.0m/s | 16.5°C | 90.7% | 878.5hPa | 0V | 00:00:00 | 00:00:00 | 00:00:00 | |
| PU1XMG-16 | 2026-09-06 00:04:00 | -22.80637 | -43.24712 | 43° | 4km/h | 1176m | 7.1m/s | 16.8°C | 89.3% | 882.1hPa | 0V | 00:00:00 | 00:00:00 | 00:00:00 | |
| PU1XMG-16 | 2026-09-06 00:03:56 | -22.80641 | -43.24724 | 52° | 4km/h | 1138m | 6.0m/s | 17.1°C | 88.0% | 886.1hPa | 0V | 00:00:00 | 00:00:00 | 00:00:00 | |
| PU1XMG-16 | 2026-09-06 00:03:49 | -22.80644 | -43.24732 | 59° | 5km/h | 1106m | 6.6m/s | 17.3°C | 87.2% | 889.5hPa | 0V | 00:00:00 | 00:00:00 | 00:00:00 | |
| PU1XMG-16 | 2026-09-06 00:03:44 | -22.80643 | -43.24742 | 133° | 5km/h | 1067m | 6.7m/s | 17.6°C | 86.3% | 893.3hPa | 0V | 00:00:00 | 00:00:00 | 00:00:00 | |
| PU1XMG-16 | 2026-09-06 00:03:39 | -22.80637 | -43.24751 | 99° | 2km/h | 1031m | 8.1m/s | 17.8°C | 85.5% | 896.8hPa | 0V | 00:00:00 | 00:00:00 | 00:00:00 | |
| PU1XMG-16 | 2026-09-06 00:03:33 | -22.80641 | -43.24756 | 10° | 2km/h | 999m | 6.0m/s | 18.1°C | 84.6% | 900.2hPa | 0V | 00:00:00 | 00:00:00 | 00:00:00 | |
| PU1XMG-16 | 2026-09-06 00:03:27 | -22.80645 | -43.24760 | 12° | 5km/h | 963m | 5.8m/s | 18.4°C | 83.5% | 904.2hPa | 0V | 00:00:00 | 00:00:00 | 00:00:00 | |
| PU1XMG-16 | 2026-09-06 00:03:24 | -22.80651 | -43.24770 | 60° | 5km/h | 928m | 8.3m/s | 18.7°C | 0% | 907.6hPa | 0V | 00:00:00 | 00:00:00 | 00:00:00 | |
| PU1XMG-16 | 2026-09-06 00:03:21 | -22.80659 | -43.24766 | 66° | 7km/h | 889m | 6.7m/s | 19.0°C | 0% | 912.0hPa | 0V | 00:00:00 | 00:00:00 | 00:00:00 | |
| PU1XMG-16 | 2026-09-06 00:03:16 | -22.80660 | -43.24771 | 0° | 0km/h | 852m | 7.0m/s | 0°C | 0% | 915.9hPa | 0V | 00:00:00 | 00:00:00 | 00:00:00 | |
| PU1XMG-16 | 2026-09-06 00:03:13 | -22.80669 | -43.24769 | 2° | 4km/h | 817m | 6.8m/s | 0°C | 0% | 919.8hPa | 0V | 00:00:00 | 00:00:00 | 00:00:00 | |
| PU1XMG-16 | 2026-09-06 00:03:02 | -22.80684 | -43.24772 | 355° | 2km/h | 758m | 5.8m/s | 0°C | 0% | 0hPa | 0V | 00:00:00 | 00:00:00 | 00:00:00 | |
| PU1XMG-16 | 2026-09-06 00:02:58 | -22.80690 | -43.24773 | 6° | 7km/h | 728m | 7.4m/s | 0°C | 0% | 0hPa | 0V | 00:00:00 | 00:00:00 | 00:00:00 | |
| PU1XMG-16 | 2026-09-06 00:02:53 | -22.80705 | -43.24777 | 19° | 9km/h | 693m | 7.1m/s | 0°C | 0% | 0hPa | 0V | 00:00:00 | 00:00:00 | 00:00:00 | |
| PU1XMG-16 | 2026-09-06 00:02:49 | -22.80720 | -43.24783 | 47° | 5km/h | 667m | 5.4m/s | 0°C | 0% | 0hPa | 0V | 00:00:00 | 00:00:00 | 00:00:00 |